Home > Products > Valid Products > TAF

000
FTUS46 KLOX 060700 AAA
TAFBUR
TAF AMD
KBUR 060704Z 0607/0706 18009KT P6SM OVC030
     FM060830 15006KT P6SM OVC025
     FM061700 17009KT P6SM BKN030
     FM062000 19010KT P6SM BKN035
     FM070300 17008KT P6SM SCT035=



000
FTUS46 KLOX 060700 AAA
TAFLGB
TAF AMD
KLGB 060704Z 0607/0706 30006KT P6SM SCT040
     FM060800 VRB03KT P6SM BKN030
     FM061000 12006KT P6SM OVC035
     FM061800 18008KT P6SM BKN040
     FM062100 20009KT P6SM SCT040
     FM070200 29008KT P6SM FEW040
     FM070400 VRB03KT P6SM BKN025=



000
FTUS46 KLOX 060700 AAB
TAFSBP
TAF AMD
KSBP 060703Z 0607/0706 31008KT P6SM OVC020
     FM061000 VRB03KT P6SM OVC015
     FM061600 31006KT P6SM BKN020
     FM061900 30015G20KT P6SM BKN025
     FM070200 30010KT P6SM SCT020
     FM070400 30008KT P6SM BKN020=



000
FTUS46 KLOX 060600 AAA
TAFPMD
TAF AMD
KPMD 060600Z 0606/0706 22016G21KT P6SM SKC
     FM061800 23022G30KT P6SM SKC
     FM062100 23024G36KT 6SM BLDU FEW060
     FM070300 23021G26KT P6SM SKC=



000
FTUS46 KLOX 060600 AAA
TAFSBP
TAF AMD
KSBP 060600Z 0606/0706 31008KT P6SM OVC017
     FM061000 VRB03KT P6SM OVC012
     FM061600 31006KT P6SM BKN020
     FM061900 30015G20KT P6SM BKN025
     FM070200 30010KT P6SM SCT020
     FM070400 30008KT P6SM BKN020=



000
FTUS46 KLOX 060600 AAA
TAFSBP
TAF AMD
KSBP 060600Z 0606/0706 31008KT P6SM OVC017
     FM061000 VRB03KT P6SM OVC012
     FM061600 31006KT P6SM BKN020
     FM061900 30015G20KT P6SM BKN025
     FM070200 30010KT P6SM SCT020
     FM070400 30008KT P6SM BKN020=



000
FTUS46 KLOX 060600 AAA
TAFPMD
TAF AMD
KPMD 060600Z 0606/0706 22016G21KT P6SM SKC
     FM061800 23022G30KT P6SM SKC
     FM062100 23024G36KT 6SM BLDU FEW060
     FM070300 23021G26KT P6SM SKC=



000
FTUS46 KLOX 060500 RRA
TAFSBP
TAF
KSBP 060543Z 0606/0706 31008KT P6SM OVC020
     FM061000 VRB03KT P6SM OVC015
     FM061600 31006KT P6SM BKN020
     FM061900 30015G20KT P6SM BKN025
     FM070200 30010KT P6SM SCT020
     FM070400 30008KT P6SM BKN020=



000
FTUS46 KLOX 060500 RRA
TAFVNY
TAF
KVNY 060543Z 0606/0706 15009KT P6SM SCT035
     FM060800 14005KT P6SM OVC025
     FM061700 15009KT P6SM BKN030
     FM062000 17010KT P6SM BKN035
     FM070300 15008KT P6SM SCT035=



000
FTUS46 KLOX 060500 RRA
TAFLGB
TAF
KLGB 060543Z 0606/0706 30006KT P6SM SCT040
     FM060700 VRB03KT P6SM BKN030
     FM060900 12006KT P6SM OVC035
     FM061800 18008KT P6SM BKN040
     FM062100 20009KT P6SM SCT040
     FM070200 29008KT P6SM FEW040
     FM070400 VRB03KT P6SM BKN025=



000
FTUS46 KLOX 060500 RRA
TAFPMD
TAF
KPMD 060543Z 0606/0706 23016G21KT P6SM SKC
     FM061800 23022G30KT P6SM SKC
     FM062100 23024G36KT 6SM BLDU FEW060
     FM070300 23021G26KT P6SM SKC=



000
FTUS46 KLOX 060500 RRA
TAFWJF
TAF
KWJF 060543Z 0606/0706 23016G21KT P6SM SKC
     FM061700 23022G32KT P6SM SKC
     FM062100 23027G39KT 6SM BLDU FEW060
     FM070300 23021G26KT P6SM SKC=



000
FTUS46 KLOX 060500 RRA
TAFSBA
TAF
KSBA 060543Z 0606/0706 VRB03KT P6SM SCT035
     FM061000 11003KT P6SM OVC025
     FM061400 13005KT P6SM OVC030
     FM061900 21006KT P6SM BKN035
     FM062200 25012KT P6SM SCT040
     FM070300 29005KT P6SM FEW040=



000
FTUS46 KLOX 060500 RRA
TAFPRB
TAF
KPRB 060543Z 0606/0706 30008KT P6SM SCT007
     FM060900 VRB03KT 6SM BR OVC007
     FM061600 30008KT P6SM BKN015
     FM061800 29011KT P6SM SCT020
     FM062200 21017G25KT P6SM SCT025
     FM070500 29008KT P6SM SCT025 BKN050=



000
FTUS46 KLOX 060500 RRA
TAFSMX
TAF
KSMX 060543Z 0606/0706 30008KT P6SM OVC020
     FM060800 VRB03KT P6SM OVC015
     FM061600 30006KT P6SM BKN020
     FM061900 30015G20KT P6SM BKN025
     FM070200 30010KT P6SM SCT020
     FM070400 30008KT P6SM BKN020=



000
FTUS46 KLOX 060500 RRA
TAFLAX
TAF
KLAX 060543Z 0606/0712 26007KT P6SM SCT040
     FM060800 25006KT P6SM SCT020 OVC030
     FM061600 25006KT P6SM SCT025 OVC035
     FM061900 25012KT P6SM BKN040
     FM062200 26012G18KT P6SM SCT040
     FM070300 26008KT P6SM SCT035
     FM070500 25005KT P6SM BKN025
     FM070800 VRB03KT P6SM OVC030=



000
FTUS46 KLOX 060500 RRA
TAFVNY
TAF
KVNY 060543Z 0606/0706 15009KT P6SM SCT035
     FM060800 14005KT P6SM OVC025
     FM061700 15009KT P6SM BKN030
     FM062000 17010KT P6SM BKN035
     FM070300 15008KT P6SM SCT035=



000
FTUS46 KLOX 060500 RRA
TAFBUR
TAF
KBUR 060543Z 0606/0706 18009KT P6SM SCT035
     FM060800 15006KT P6SM OVC025
     FM061700 17009KT P6SM BKN030
     FM062000 19010KT P6SM BKN035
     FM070300 17008KT P6SM SCT035=



000
FTUS46 KLOX 060500 RRA
TAFSBP
TAF
KSBP 060543Z 0606/0706 31008KT P6SM OVC020
     FM061000 VRB03KT P6SM OVC015
     FM061600 31006KT P6SM BKN020
     FM061900 30015G20KT P6SM BKN025
     FM070200 30010KT P6SM SCT020
     FM070400 30008KT P6SM BKN020=



000
FTUS46 KLOX 060500 RRA
TAFLGB
TAF
KLGB 060543Z 0606/0706 30006KT P6SM SCT040
     FM060700 VRB03KT P6SM BKN030
     FM060900 12006KT P6SM OVC035
     FM061800 18008KT P6SM BKN040
     FM062100 20009KT P6SM SCT040
     FM070200 29008KT P6SM FEW040
     FM070400 VRB03KT P6SM BKN025=



000
FTUS46 KLOX 060500 RRA
TAFLAX
TAF
KLAX 060543Z 0606/0712 26007KT P6SM SCT040
     FM060800 25006KT P6SM SCT020 OVC030
     FM061600 25006KT P6SM SCT025 OVC035
     FM061900 25012KT P6SM BKN040
     FM062200 26012G18KT P6SM SCT040
     FM070300 26008KT P6SM SCT035
     FM070500 25005KT P6SM BKN025
     FM070800 VRB03KT P6SM OVC030=



000
FTUS46 KLOX 060500 RRA
TAFBUR
TAF
KBUR 060543Z 0606/0706 18009KT P6SM SCT035
     FM060800 15006KT P6SM OVC025
     FM061700 17009KT P6SM BKN030
     FM062000 19010KT P6SM BKN035
     FM070300 17008KT P6SM SCT035=



000
FTUS46 KLOX 060500 RRA
TAFPRB
TAF
KPRB 060543Z 0606/0706 30008KT P6SM SCT007
     FM060900 VRB03KT 6SM BR OVC007
     FM061600 30008KT P6SM BKN015
     FM061800 29011KT P6SM SCT020
     FM062200 21017G25KT P6SM SCT025
     FM070500 29008KT P6SM SCT025 BKN050=



000
FTUS46 KLOX 060500 RRA
TAFSMX
TAF
KSMX 060543Z 0606/0706 30008KT P6SM OVC020
     FM060800 VRB03KT P6SM OVC015
     FM061600 30006KT P6SM BKN020
     FM061900 30015G20KT P6SM BKN025
     FM070200 30010KT P6SM SCT020
     FM070400 30008KT P6SM BKN020=



000
FTUS46 KLOX 060500 RRA
TAFPMD
TAF
KPMD 060543Z 0606/0706 23016G21KT P6SM SKC
     FM061800 23022G30KT P6SM SKC
     FM062100 23024G36KT 6SM BLDU FEW060
     FM070300 23021G26KT P6SM SKC=



000
FTUS46 KLOX 060500 RRA
TAFWJF
TAF
KWJF 060543Z 0606/0706 23016G21KT P6SM SKC
     FM061700 23022G32KT P6SM SKC
     FM062100 23027G39KT 6SM BLDU FEW060
     FM070300 23021G26KT P6SM SKC=



000
FTUS46 KLOX 060500 RRA
TAFSBA
TAF
KSBA 060543Z 0606/0706 VRB03KT P6SM SCT035
     FM061000 11003KT P6SM OVC025
     FM061400 13005KT P6SM OVC030
     FM061900 21006KT P6SM BKN035
     FM062200 25012KT P6SM SCT040
     FM070300 29005KT P6SM FEW040=



000
FTUS46 KLOX 060500 AAA
TAFVNY
TAF AMD
KVNY 060502Z 0605/0624 15009KT P6SM SCT035
     FM060800 14005KT P6SM OVC025
     FM062000 15009KT P6SM BKN035=



000
FTUS46 KLOX 060500 AAA
TAFBUR
TAF AMD
KBUR 060502Z 0605/0624 18009KT P6SM SCT035
     FM060800 15006KT P6SM OVC025
     FM062000 17009KT P6SM BKN035=



000
FTUS46 KLOX 060500 AAA
TAFBUR
TAF AMD
KBUR 060502Z 0605/0624 18009KT P6SM SCT035
     FM060800 15006KT P6SM OVC025
     FM062000 17009KT P6SM BKN035=



000
FTUS46 KLOX 060500 AAA
TAFVNY
TAF AMD
KVNY 060502Z 0605/0624 15009KT P6SM SCT035
     FM060800 14005KT P6SM OVC025
     FM062000 15009KT P6SM BKN035=



000
FTUS46 KLOX 060500 AAB
TAFLGB
TAF AMD
KLGB 060501Z 0605/0624 30006KT P6SM SCT040
     FM060700 VRB03KT P6SM BKN030
     FM060900 12006KT P6SM OVC035
     FM061800 18008KT P6SM BKN040=



000
FTUS46 KLOX 060500 AAB
TAFLAX
TAF AMD
KLAX 060501Z 0605/0706 26007KT P6SM SCT040
     FM060800 25006KT P6SM SCT020 OVC030
     FM061600 25006KT P6SM SCT025 OVC035
     FM061900 25012KT P6SM BKN040=



000
FTUS46 KLOX 060500 AAB
TAFLAX
TAF AMD
KLAX 060501Z 0605/0706 26007KT P6SM SCT040
     FM060800 25006KT P6SM SCT020 OVC030
     FM061600 25006KT P6SM SCT025 OVC035
     FM061900 25012KT P6SM BKN040=



000
FTUS46 KLOX 060500 AAB
TAFLGB
TAF AMD
KLGB 060501Z 0605/0624 30006KT P6SM SCT040
     FM060700 VRB03KT P6SM BKN030
     FM060900 12006KT P6SM OVC035
     FM061800 18008KT P6SM BKN040=



000
FTUS46 KLOX 060300 AAA
TAFLGB
TAF AMD
KLGB 060303Z 0603/0624 30006KT P6SM SCT040
     FM060500 VRB03KT P6SM BKN030
     FM060900 12006KT P6SM OVC035
     FM061800 18008KT P6SM BKN040=



000
FTUS46 KLOX 060300 AAA
TAFLAX
TAF AMD
KLAX 060302Z 0603/0706 26007KT P6SM SCT040
     FM060500 25006KT P6SM SCT020 OVC030
     FM061600 25006KT P6SM SCT025 OVC035
     FM061900 25012KT P6SM BKN040=



000
FTUS46 KLOX 060200 AAA
TAFSBP
TAF AMD
KSBP 060219Z 0602/0624 30012KT P6SM BKN025
     FM060400 31008KT P6SM BKN020
     FM060800 VRB03KT P6SM OVC020
     FM061900 30014KT P6SM BKN025=



000
FTUS46 KLOX 052300
TAFLAX
TAF
KLAX 052339Z 0600/0706 26012KT P6SM SCT030 BKN040
     FM060300 25007KT P6SM BKN025
     FM061000 25006KT P6SM SCT020 OVC030
     FM061600 25006KT P6SM SCT025 OVC035
     FM061900 25012KT P6SM BKN040=



000
FTUS46 KLOX 052300
TAFLGB
TAF
KLGB 052339Z 0600/0624 20007KT P6SM BKN045
     FM060200 VRB04KT P6SM BKN030
     FM060900 12006KT P6SM OVC035
     FM061800 18008KT P6SM BKN040=



000
FTUS46 KLOX 052300
TAFBUR
TAF
KBUR 052339Z 0600/0624 18009KT P6SM BKN035
     FM060400 15006KT P6SM OVC025
     FM062000 17009KT P6SM BKN035=



000
FTUS46 KLOX 052300
TAFSMX
TAF
KSMX 052339Z 0600/0624 30015KT P6SM BKN025
     FM060300 30008KT P6SM OVC020
     FM060800 VRB03KT P6SM OVC020
     FM061900 30014KT P6SM BKN025=



000
FTUS46 KLOX 052300
TAFPRB
TAF
KPRB 052339Z 0600/0624 21015G22KT P6SM SKC
     FM060400 21008KT P6SM SKC
     FM060600 30008KT P6SM SCT007
     FM060900 VRB03KT P6SM OVC010
     FM061700 VRB03KT P6SM BKN020
     FM062000 21012KT P6SM SCT025
     FM062200 21017G25KT P6SM SCT025=



000
FTUS46 KLOX 052300
TAFWJF
TAF
KWJF 052339Z 0600/0624 23025G35KT 6SM BLDU FEW060
     FM060300 23018G25KT P6SM SKC
     FM061800 23022G30KT P6SM SKC
     FM062100 23025G35KT 6SM BLDU FEW060=



000
FTUS46 KLOX 052300
TAFVNY
TAF
KVNY 052339Z 0600/0624 15009KT P6SM BKN035
     FM060400 14005KT P6SM OVC025
     FM062000 15009KT P6SM BKN035=



000
FTUS46 KLOX 052300
TAFSBP
TAF
KSBP 052339Z 0600/0624 30014KT P6SM SCT030
     FM060400 31008KT P6SM BKN020
     FM060800 VRB03KT P6SM OVC020
     FM061900 30014KT P6SM BKN025=



000
FTUS46 KLOX 052300
TAFVNY
TAF
KVNY 052339Z 0600/0624 15009KT P6SM BKN035
     FM060400 14005KT P6SM OVC025
     FM062000 15009KT P6SM BKN035=



000
FTUS46 KLOX 052300
TAFPMD
TAF
KPMD 052339Z 0600/0624 24022G30KT P6SM SKC
     FM060300 23017G25KT P6SM SKC
     FM061800 23022G30KT P6SM SKC
     FM062100 23025G35KT 6SM BLDU FEW060=



000
FTUS46 KLOX 052300
TAFSBA
TAF
KSBA 052339Z 0600/0624 25010KT P6SM SCT040
     FM060200 VRB03KT P6SM SCT035
     FM060700 VRB03KT P6SM OVC025
     FM061300 12005KT P6SM OVC030
     FM061900 21006KT P6SM BKN035
     FM062200 25009KT P6SM SCT040=



000
FTUS46 KLOX 052100 AAA
TAFPRB
TAF AMD
KPRB 052121Z 0521/0618 25010KT P6SM SKC
     FM052200 21016G22KT P6SM SKC
     FM060400 21008KT P6SM SKC
     FM060600 30008KT P6SM SCT007
     FM061000 VRB03KT 4SM BR OVC004=



000
FTUS46 KLOX 052100 AAA
TAFPRB
TAF AMD
KPRB 052121Z 0521/0618 25010KT P6SM SKC
     FM052200 21016G22KT P6SM SKC
     FM060400 21008KT P6SM SKC
     FM060600 30008KT P6SM SCT007
     FM061000 VRB03KT 4SM BR OVC004=



000
FTUS46 KLOX 052000 AAA
TAFLAX
TAF AMD
KLAX 052055Z 0521/0624 27011KT P6SM SCT028 BKN040
     FM052300 26012KT P6SM SCT040
     FM060200 25005KT P6SM BKN025
     FM061000 11003KT P6SM BKN015 OVC030
     FM061600 25005KT P6SM BKN020 OVC035
     FM062200 25012KT P6SM BKN035=



000
FTUS46 KLOX 051700
TAFPRB
TAF
KPRB 051736Z 0518/0618 00000KT P6SM OVC010
     FM051900 21010KT P6SM SCT010
     FM052100 21016G22KT P6SM SKC
     FM060400 21008KT P6SM SKC
     FM060600 30008KT P6SM SCT007
     FM061000 VRB03KT 4SM BR OVC004=



000
FTUS46 KLOX 051700
TAFBUR
TAF
KBUR 051736Z 0518/0618 16005KT P6SM BKN018 OVC024
     FM052000 18009KT P6SM BKN035
     FM060400 16005KT P6SM BKN017
     FM060900 VRB03KT P6SM OVC022=



000
FTUS46 KLOX 051700
TAFSBP
TAF
KSBP 051736Z 0518/0618 19003KT P6SM OVC019
     FM052100 31014G22KT P6SM SCT025
     FM060200 31010KT P6SM SCT020
     FM060400 31008KT P6SM BKN015
     FM061000 VRB03KT P6SM OVC020=



000
FTUS46 KLOX 051700
TAFPMD
TAF
KPMD 051736Z 0518/0618 23015KT P6SM SKC
     FM051900 23017G25KT P6SM SKC
     FM052200 24024G34KT 6SM BLDU FEW060
     FM060200 23016G24KT P6SM FEW060
     FM060400 23016KT P6SM SKC=



000
FTUS46 KLOX 051700
TAFSMX
TAF
KSMX 051736Z 0518/0618 00000KT P6SM OVC017
     FM052100 30016G24KT P6SM SCT025
     FM060200 30010KT P6SM SCT020
     FM060400 30008KT P6SM BKN015
     FM061000 VRB03KT P6SM OVC020=



000
FTUS46 KLOX 051700
TAFVNY
TAF
KVNY 051736Z 0518/0618 13004KT P6SM OVC026
     FM052000 16009KT P6SM BKN035
     FM060400 14004KT P6SM BKN017
     FM060900 VRB03KT P6SM OVC022=



000
FTUS46 KLOX 051700
TAFSBA
TAF
KSBA 051736Z 0518/0618 14003KT P6SM OVC035
     FM051900 23008KT P6SM BKN035
     FM052300 25010KT P6SM SCT035
     FM060200 VRB03KT P6SM SCT030
     FM060700 07003KT P6SM BKN020
     FM061000 11003KT P6SM OVC020=



000
FTUS46 KLOX 051700
TAFLGB
TAF
KLGB 051736Z 0518/0618 08005KT P6SM OVC035
     FM051900 19007KT P6SM OVC035
     FM052200 19007KT P6SM SCT035
     FM060100 VRB04KT P6SM BKN020
     FM060900 16004KT P6SM OVC030=



000
FTUS46 KLOX 051700
TAFWJF
TAF
KWJF 051736Z 0518/0618 23018G25KT P6SM SKC
     FM052100 23025G35KT 6SM BLDU FEW060
     FM060200 23017G25KT P6SM FEW060
     FM060400 23018KT P6SM SKC=



000
FTUS46 KLOX 051700
TAFLAX
TAF
KLAX 051736Z 0518/0624 15004KT P6SM SCT028 OVC035
     FM052200 26012KT P6SM SCT035
     FM060200 25005KT P6SM BKN025
     FM061000 11003KT P6SM BKN015 OVC030
     FM061600 25005KT P6SM BKN020 OVC035
     FM062200 25012KT P6SM BKN035=



000
FTUS46 KLOX 051400 AAA
TAFLAX
TAF AMD
KLAX 051456Z 0515/0618 15005KT P6SM SCT018 OVC028
     FM052000 26012KT P6SM SCT020 BKN035
     FM060400 25005KT P6SM BKN025
     FM061000 11003KT P6SM BKN015 OVC030
     FM061600 25005KT P6SM BKN020 OVC035=



000
FTUS46 KLOX 051100
TAFWJF
TAF
KWJF 051123Z 0512/0612 24016KT P6SM SKC
     FM051800 23019G27KT P6SM SKC
     FM052000 23025G35KT 6SM BLDU FEW060
     FM060200 23017G25KT P6SM FEW060
     FM060400 23018KT P6SM SKC=



000
FTUS46 KLOX 051100
TAFVNY
TAF
KVNY 051123Z 0512/0612 14004KT P6SM BKN015 OVC025
     FM051600 15007KT P6SM SCT020 BKN030
     FM052000 16009KT P6SM BKN035
      TEMPO 0522/0602 SCT035
     FM060400 14004KT P6SM BKN017
     FM060900 VRB03KT P6SM OVC022=



000
FTUS46 KLOX 051100
TAFSMX
TAF
KSMX 051123Z 0512/0612 VRB03KT P6SM OVC015
     FM051600 30006KT P6SM OVC020
     FM051800 31010KT P6SM SCT020
     FM052000 30016G24KT P6SM SCT025
     FM060200 30010KT P6SM SCT020
     FM060400 30008KT P6SM BKN015=



000
FTUS46 KLOX 051100
TAFPMD
TAF
KPMD 051123Z 0512/0612 23014KT P6SM SKC
     FM051900 23017G25KT P6SM SKC
     FM052200 24024G34KT 6SM BLDU FEW060
     FM060200 23016G24KT P6SM FEW060
     FM060400 23016KT P6SM SKC=



000
FTUS46 KLOX 051100
TAFBUR
TAF
KBUR 051123Z 0512/0612 15005KT P6SM BKN015 OVC025
     FM051600 16007KT P6SM SCT020 BKN030
     FM052000 18009KT P6SM BKN035
      TEMPO 0522/0602 SCT035
     FM060400 16005KT P6SM BKN017
     FM060900 VRB03KT P6SM OVC022=



000
FTUS46 KLOX 051100
TAFPRB
TAF
KPRB 051123Z 0512/0612 VRB03KT 6SM BR OVC007
      TEMPO 0513/0516 4SM BR OVC004
     FM051600 VRB03KT P6SM BKN012
     FM051800 23010KT P6SM FEW017
     FM052000 21016G24KT P6SM SKC
     FM060400 21010KT P6SM SKC
     FM060600 30008KT P6SM SCT007
     FM061000 VRB03KT 4SM BR OVC004=



000
FTUS46 KLOX 051100
TAFLAX
TAF
KLAX 051123Z 0512/0618 12003KT P6SM BKN015 OVC025
     FM051500 23008KT P6SM SCT020 OVC030
     FM052000 26012KT P6SM SCT020 BKN035
     FM060400 25005KT P6SM BKN025
     FM061000 11003KT P6SM BKN015 OVC030
     FM061600 25005KT P6SM BKN020 OVC035=



000
FTUS46 KLOX 051100
TAFSBP
TAF
KSBP 051123Z 0512/0612 VRB03KT P6SM OVC015
     FM051600 31006KT P6SM OVC020
     FM051800 30010KT P6SM SCT020
     FM052000 31014G22KT P6SM SCT025
     FM060200 31010KT P6SM SCT020
     FM060400 31008KT P6SM BKN015=



000
FTUS46 KLOX 051100
TAFLGB
TAF
KLGB 051123Z 0512/0612 14004KT P6SM SCT017 OVC030
     FM051400 17005KT P6SM SCT020 BKN035
     FM051800 19008KT P6SM BKN035
      TEMPO 0520/0524 SCT035
     FM060100 VRB04KT P6SM BKN025
     FM060900 16004KT P6SM BKN015 BKN030=



000
FTUS46 KLOX 051100
TAFSBA
TAF
KSBA 051123Z 0512/0612 11003KT P6SM OVC020
     FM051900 23008KT P6SM BKN025
     FM052200 25010KT P6SM SCT030
     FM060200 VRB03KT P6SM FEW030
     FM060700 07003KT P6SM SCT020
     FM061000 11003KT P6SM BKN020=



000
FTUS46 KLOX 050900 AAA
TAFVNY
TAF AMD
KVNY 050959Z 0510/0606 14004KT P6SM BKN012 OVC025
     FM051600 15007KT P6SM SCT015 BKN030
     FM052000 16009KT P6SM BKN035
      TEMPO 0522/0602 SCT035
     FM060400 14004KT P6SM BKN025=



000
FTUS46 KLOX 050900 AAA
TAFBUR
TAF AMD
KBUR 050958Z 0510/0606 15005KT P6SM BKN012 OVC025
     FM051600 16007KT P6SM SCT015 BKN030
     FM052000 18009KT P6SM BKN035
      TEMPO 0522/0602 SCT035
     FM060400 16005KT P6SM BKN025=



000
FTUS46 KLOX 050900 AAA
TAFSBA
TAF AMD
KSBA 050930Z 0510/0606 VRB03KT P6SM SKC
     FM051000 VRB03KT P6SM SCT015
     FM051300 14006KT P6SM OVC020
     FM051900 23008KT P6SM BKN025
     FM052100 25010KT P6SM SCT030
     FM060200 VRB03KT P6SM FEW030=



000
FTUS46 KLOX 050900 AAC
TAFLAX
TAF AMD
KLAX 050901Z 0509/0612 12003KT P6SM BKN012 OVC025
     FM051500 25010KT P6SM SCT015 OVC030
     FM052200 26012G20KT P6SM BKN035
     FM060400 25008KT P6SM BKN025=



000
FTUS46 KLOX 050900 AAA
TAFSMX
TAF AMD
KSMX 050901Z 0509/0606 VRB03KT P6SM OVC015
     FM051600 30006KT P6SM OVC020
     FM051800 31010KT P6SM BKN025
     FM052000 30015G22KT P6SM SCT030
     FM060300 30010KT P6SM SCT025
     FM060400 30008KT P6SM BKN020=



000
FTUS46 KLOX 050900 AAA
TAFSBP
TAF AMD
KSBP 050900Z 0509/0606 VRB03KT P6SM OVC015
     FM051600 31006KT P6SM OVC020
     FM051800 30010KT P6SM BKN025
     FM052000 31015G22KT P6SM SCT030
     FM060300 31010KT P6SM SCT025
     FM060500 31008KT P6SM BKN020=



000
FTUS46 KLOX 050900 AAA
TAFSBP
TAF AMD
KSBP 050900Z 0509/0606 VRB03KT P6SM OVC015
     FM051600 31006KT P6SM OVC020
     FM051800 30010KT P6SM BKN025
     FM052000 31015G22KT P6SM SCT030
     FM060300 31010KT P6SM SCT025
     FM060500 31008KT P6SM BKN020=



000
FTUS46 KLOX 050800 AAA
TAFPRB
TAF AMD
KPRB 050813Z 0508/0606 29008KT P6SM SCT010
     FM051000 VRB03KT P6SM OVC010
     FM051500 VRB03KT P6SM BKN015
     FM051800 VRB03KT P6SM SCT018
     FM052000 22015G22KT P6SM SKC
     FM060400 21010KT P6SM SKC=



000
FTUS46 KLOX 050800 AAB
TAFLAX
TAF AMD
KLAX 050810Z 0508/0612 24005KT P6SM BKN020
     FM050900 12003KT P6SM OVC025
     FM051500 25010KT P6SM SCT015 OVC030
     FM052200 26012G20KT P6SM BKN035
     FM060400 25008KT P6SM BKN025=



000
FTUS46 KLOX 050600 AAA
TAFLAX
TAF AMD
KLAX 050656Z 0507/0612 24005KT P6SM BKN025
     FM050900 12003KT P6SM OVC025
     FM051500 25010KT P6SM SCT015 OVC030
     FM052200 26012G20KT P6SM BKN035
     FM060400 25008KT P6SM BKN025=



000
FTUS46 KLOX 050600 AAA
TAFLAX
TAF AMD
KLAX 050656Z 0507/0612 24005KT P6SM BKN025
     FM050900 12003KT P6SM OVC025
     FM051500 25010KT P6SM SCT015 OVC030
     FM052200 26012G20KT P6SM BKN035
     FM060400 25008KT P6SM BKN025=



000
FTUS46 KLOX 050500 RRA
TAFLAX
TAF
KLAX 050551Z 0506/0612 25008KT P6SM FEW025
     FM051000 12003KT P6SM BKN025
     FM051500 25010KT P6SM SCT015 OVC030
     FM052200 26012G20KT P6SM BKN035
     FM060400 25008KT P6SM BKN025=



000
FTUS46 KLOX 050500 RRA
TAFWJF
TAF
KWJF 050551Z 0506/0606 23016KT P6SM SKC
     FM051800 23020G28KT P6SM SKC
     FM052000 23025G35KT P6SM SKC
     FM060200 23018G26KT P6SM SKC
     FM060400 23018KT P6SM SKC=



000
FTUS46 KLOX 050500 RRA
TAFSMX
TAF
KSMX 050551Z 0506/0606 30006KT P6SM OVC020
     FM051800 31010KT P6SM BKN025
     FM052000 30015G22KT P6SM SCT030
     FM060300 30010KT P6SM SCT025
     FM060400 30008KT P6SM BKN020=



000
FTUS46 KLOX 050500 RRA
TAFSBP
TAF
KSBP 050551Z 0506/0606 31006KT P6SM OVC020
     FM051800 30010KT P6SM BKN025
     FM052000 31015G22KT P6SM SCT030
     FM060300 31010KT P6SM SCT025
     FM060500 31008KT P6SM BKN020=



000
FTUS46 KLOX 050500 RRA
TAFSBA
TAF
KSBA 050551Z 0506/0606 VRB03KT P6SM SKC
     FM051000 VRB03KT P6SM SCT015
     FM051600 14006KT P6SM OVC020
     FM051900 23008KT P6SM BKN025
     FM052100 25010KT P6SM SCT030
     FM060200 VRB03KT P6SM FEW030=



000
FTUS46 KLOX 050500 RRA
TAFPRB
TAF
KPRB 050551Z 0506/0606 21008KT P6SM SKC
     FM050700 29008KT P6SM SCT010
     FM050900 VRB03KT P6SM OVC010
     FM051500 VRB03KT P6SM BKN015
     FM051800 VRB03KT P6SM SCT018
     FM052000 22015G22KT P6SM SKC
     FM060400 21010KT P6SM SKC=



000
FTUS46 KLOX 050500 RRA
TAFVNY
TAF
KVNY 050551Z 0506/0606 13005KT P6SM SKC
     FM050800 14004KT P6SM BKN020
     FM051400 15005KT P6SM SCT012 OVC025
     FM052000 16009KT P6SM SCT030
     FM060400 15005KT P6SM SCT025=



000
FTUS46 KLOX 050500 RRA
TAFLGB
TAF
KLGB 050551Z 0506/0606 30006KT P6SM SCT027
     FM050700 VRB03KT P6SM BKN027
     FM051400 14004KT P6SM SCT015 BKN030
     FM051900 19008KT P6SM BKN035
     FM052100 20008KT P6SM SCT035
     FM060100 29008KT P6SM SKC=



000
FTUS46 KLOX 050500 RRA
TAFPMD
TAF
KPMD 050551Z 0506/0606 23016KT P6SM SKC
     FM052000 23018G26KT P6SM SKC
     FM052200 24025G35KT P6SM SKC
     FM060200 23016G24KT P6SM SKC
     FM060400 23016KT P6SM SKC=



000
FTUS46 KLOX 050500 RRA
TAFBUR
TAF
KBUR 050551Z 0506/0606 13005KT P6SM SKC
     FM050800 14004KT P6SM BKN020
     FM051400 15005KT P6SM SCT012 OVC025
     FM052000 18009KT P6SM SCT030
     FM060400 16005KT P6SM SCT025=



000
FTUS46 KLOX 050200 AAA
TAFLAX
TAF AMD
KLAX 050258Z 0503/0606 26011KT P6SM FEW015
     FM050600 27008KT P6SM OVC020
     FM051400 VRB03KT P6SM OVC025
     FM051900 25010KT P6SM BKN030
     FM052200 26014KT P6SM SCT035
     FM060400 25008KT P6SM BKN020=



000
FTUS46 KLOX 050100 AAA
TAFSMX
TAF AMD
KSMX 050104Z 0501/0524 31015KT P6SM BKN030
     FM050300 VRB03KT P6SM OVC020
     FM051200 VRB03KT P6SM OVC025
     FM051900 29010KT P6SM BKN030
     FM052100 30015KT P6SM SCT030=



000
FTUS46 KLOX 042300
TAFSBP
TAF
KSBP 042333Z 0500/0524 31015KT P6SM SCT025
     FM050400 VRB03KT P6SM OVC020
     FM051200 VRB03KT P6SM OVC025
     FM051900 29010KT P6SM BKN030
     FM052100 30015KT P6SM SCT030=



000
FTUS46 KLOX 042300
TAFPMD
TAF
KPMD 042333Z 0500/0524 24022G32KT P6SM SKC
     FM050200 24015G20KT P6SM SKC
     FM051800 23018G25KT P6SM SKC
     FM052000 24025G35KT P6SM SKC=



000
FTUS46 KLOX 042300
TAFLAX
TAF
KLAX 042333Z 0500/0606 26015G20KT P6SM FEW020
     FM050300 27012KT P6SM SCT025
     FM050500 27008KT P6SM OVC025
     FM051400 VRB03KT P6SM OVC025
     FM051900 25010KT P6SM BKN030
     FM052200 26014KT P6SM SCT035
     FM060400 25008KT P6SM BKN020=



000
FTUS46 KLOX 042300
TAFWJF
TAF
KWJF 042333Z 0500/0524 24022G32KT P6SM SKC
     FM050200 23015G22KT P6SM SKC
     FM051800 23020G28KT P6SM SKC
     FM052000 23025G35KT P6SM SKC=



000
FTUS46 KLOX 042300
TAFPRB
TAF
KPRB 042333Z 0500/0524 21015G22KT P6SM SKC
     FM050100 22010KT P6SM SKC
     FM050400 29008KT P6SM SKC
     FM050900 VRB03KT P6SM OVC010
     FM051800 VRB03KT P6SM SCT018
     FM052000 22012KT P6SM SKC
     FM052200 22015G22KT P6SM SKC=



000
FTUS46 KLOX 042300
TAFPMD
TAF
KPMD 042333Z 0500/0524 24022G32KT P6SM SKC
     FM050200 24015G20KT P6SM SKC
     FM051800 23018G25KT P6SM SKC
     FM052000 24025G35KT P6SM SKC=



000
FTUS46 KLOX 042300
TAFWJF
TAF
KWJF 042333Z 0500/0524 24022G32KT P6SM SKC
     FM050200 23015G22KT P6SM SKC
     FM051800 23020G28KT P6SM SKC
     FM052000 23025G35KT P6SM SKC=



000
FTUS46 KLOX 042300
TAFSMX
TAF
KSMX 042333Z 0500/0524 31015KT P6SM SCT030
     FM050300 VRB03KT P6SM OVC020
     FM051200 VRB03KT P6SM OVC025
     FM051900 29010KT P6SM BKN030
     FM052100 30015KT P6SM SCT030=



000
FTUS46 KLOX 042300
TAFVNY
TAF
KVNY 042333Z 0500/0524 14010KT P6SM SKC
     FM050300 14005KT P6SM SKC
     FM050800 VRB03KT P6SM OVC015
     FM051400 VRB03KT P6SM OVC020
     FM052000 14009KT P6SM SCT030=



000
FTUS46 KLOX 042300
TAFLGB
TAF
KLGB 042333Z 0500/0524 29012G18KT P6SM SKC
     FM050400 VRB03KT P6SM SCT025
     FM050600 17005KT P6SM OVC025
     FM051900 19008KT P6SM BKN030
     FM052100 20008KT P6SM SCT035=



000
FTUS46 KLOX 042300
TAFSBP
TAF
KSBP 042333Z 0500/0524 31015KT P6SM SCT025
     FM050400 VRB03KT P6SM OVC020
     FM051200 VRB03KT P6SM OVC025
     FM051900 29010KT P6SM BKN030
     FM052100 30015KT P6SM SCT030=



000
FTUS46 KLOX 042300
TAFSBA
TAF
KSBA 042333Z 0500/0524 26010KT P6SM SKC
     FM050300 VRB03KT P6SM SKC
     FM051000 VRB03KT P6SM OVC015
     FM051600 14006KT P6SM OVC020
     FM051900 23008KT P6SM BKN025
     FM052100 25009KT P6SM SCT030=



000
FTUS46 KLOX 042300
TAFBUR
TAF
KBUR 042333Z 0500/0524 17010KT P6SM SKC
     FM050300 13006KT P6SM SKC
     FM050800 VRB03KT P6SM OVC015
     FM051400 VRB03KT P6SM OVC020
     FM052000 18009KT P6SM SCT030=



000
FTUS46 KLOX 042300
TAFSMX
TAF
KSMX 042333Z 0500/0524 31015KT P6SM SCT030
     FM050300 VRB03KT P6SM OVC020
     FM051200 VRB03KT P6SM OVC025
     FM051900 29010KT P6SM BKN030
     FM052100 30015KT P6SM SCT030=



000
FTUS46 KLOX 042300
TAFLAX
TAF
KLAX 042333Z 0500/0606 26015G20KT P6SM FEW020
     FM050300 27012KT P6SM SCT025
     FM050500 27008KT P6SM OVC025
     FM051400 VRB03KT P6SM OVC025
     FM051900 25010KT P6SM BKN030
     FM052200 26014KT P6SM SCT035
     FM060400 25008KT P6SM BKN020=



000
FTUS46 KLOX 042300
TAFBUR
TAF
KBUR 042333Z 0500/0524 17010KT P6SM SKC
     FM050300 13006KT P6SM SKC
     FM050800 VRB03KT P6SM OVC015
     FM051400 VRB03KT P6SM OVC020
     FM052000 18009KT P6SM SCT030=



000
FTUS46 KLOX 042300
TAFPRB
TAF
KPRB 042333Z 0500/0524 21015G22KT P6SM SKC
     FM050100 22010KT P6SM SKC
     FM050400 29008KT P6SM SKC
     FM050900 VRB03KT P6SM OVC010
     FM051800 VRB03KT P6SM SCT018
     FM052000 22012KT P6SM SKC
     FM052200 22015G22KT P6SM SKC=



000
FTUS46 KLOX 042300
TAFLGB
TAF
KLGB 042333Z 0500/0524 29012G18KT P6SM SKC
     FM050400 VRB03KT P6SM SCT025
     FM050600 17005KT P6SM OVC025
     FM051900 19008KT P6SM BKN030
     FM052100 20008KT P6SM SCT035=



000
FTUS46 KLOX 042300
TAFVNY
TAF
KVNY 042333Z 0500/0524 14010KT P6SM SKC
     FM050300 14005KT P6SM SKC
     FM050800 VRB03KT P6SM OVC015
     FM051400 VRB03KT P6SM OVC020
     FM052000 14009KT P6SM SCT030=



000
FTUS46 KLOX 042300
TAFSBA
TAF
KSBA 042333Z 0500/0524 26010KT P6SM SKC
     FM050300 VRB03KT P6SM SKC
     FM051000 VRB03KT P6SM OVC015
     FM051600 14006KT P6SM OVC020
     FM051900 23008KT P6SM BKN025
     FM052100 25009KT P6SM SCT030=



000
FTUS46 KLOX 042000 AAB
TAFSBA
TAF AMD
KSBA 042051Z 0421/0518 24008KT P6SM SCT025
     FM042200 26012KT P6SM SKC
     FM050400 VRB03KT P6SM SKC
     FM051000 VRB03KT P6SM OVC015=



000
FTUS46 KLOX 042000 AAA
TAFLAX
TAF AMD
KLAX 042050Z 0421/0524 26012KT P6SM SCT025 BKN030
     FM042200 26015KT P6SM SCT035
     FM050300 27008KT P6SM SCT025
     FM050500 27006KT P6SM BKN025
     FM050800 21006KT P6SM OVC018
     FM051400 VRB03KT P6SM OVC025
     FM051900 27012KT P6SM BKN025=



000
FTUS46 KLOX 041900 AAA
TAFSBA
TAF AMD
KSBA 041914Z 0419/0518 24008KT P6SM BKN025
     FM042200 26012KT P6SM SKC
     FM050400 VRB03KT P6SM SKC
     FM051000 VRB03KT P6SM OVC015=



000
FTUS46 KLOX 041800 CCA
TAFLGB
TAF COR
KLGB 041805Z 0418/0518 21010KT P6SM BKN035
     FM042000 20010KT P6SM FEW035
     FM042200 29012KT P6SM SKC
     FM050500 VRB03KT P6SM SCT025
     FM050700 VRB03KT P6SM OVC018
     FM051500 VRB03KT P6SM OVC025=



000
FTUS46 KLOX 041800 CCA
TAFLGB
TAF COR
KLGB 041805Z 0418/0518 21010KT P6SM BKN035
     FM042000 20010KT P6SM FEW035
     FM042200 29012KT P6SM SKC
     FM050500 VRB03KT P6SM SCT025
     FM050700 VRB03KT P6SM OVC018
     FM051500 VRB03KT P6SM OVC025=



000
FTUS46 KLOX 041700
TAFSMX
TAF
KSMX 041727Z 0418/0518 VRB03KT P6SM SCT025
     FM041900 31008KT P6SM SKC
     FM042100 30014KT P6SM SKC
     FM050300 VRB03KT P6SM OVC015=



000
FTUS46 KLOX 041700
TAFPRB
TAF
KPRB 041727Z 0418/0518 21008KT P6SM SKC
     FM042100 21015G25KT P6SM SKC
     FM050100 22010KT P6SM SKC
     FM050400 29008KT P6SM SKC
     FM050900 32006KT P6SM OVC008
     FM051500 VRB03KT P6SM OVC010=



000
FTUS46 KLOX 041700
TAFSBP
TAF
KSBP 041727Z 0418/0518 32006KT P6SM SCT025
     FM041900 31012KT P6SM SKC
     FM050400 VRB03KT P6SM OVC018
     FM051200 VRB03KT P6SM OVC025=



000
FTUS46 KLOX 041700
TAFPMD
TAF
KPMD 041727Z 0418/0518 25012KT P6SM SKC
     FM042000 24018G28KT P6SM SKC
     FM042200 24022G32KT P6SM SKC
     FM050200 24016KT P6SM SKC
     FM050700 23012KT P6SM SKC=



000
FTUS46 KLOX 041700
TAFLAX
TAF
KLAX 041727Z 0418/0524 27007KT P6SM SCT015 BKN025
     FM042100 26015KT P6SM SCT025
     FM050300 27008KT P6SM SCT025
     FM050500 27006KT P6SM BKN025
     FM050800 21006KT P6SM OVC018
     FM051400 VRB03KT P6SM OVC025
     FM051900 27012KT P6SM BKN025=



000
FTUS46 KLOX 041700
TAFLGB
TAF
KLGB 041727Z 0418/0518 19007KT P6SM OVC025
     FM042000 20008KT P6SM SKC
     FM042200 29012KT P6SM SKC
     FM050500 VRB03KT P6SM SCT025
     FM050700 VRB03KT P6SM OVC018
     FM051500 VRB03KT P6SM OVC025=



000
FTUS46 KLOX 041700
TAFBUR
TAF
KBUR 041727Z 0418/0518 14006KT P6SM BKN025
     FM041900 17010KT P6SM SKC
     FM050300 13006KT P6SM SKC
     FM050800 VRB03KT P6SM OVC015=



000
FTUS46 KLOX 041700
TAFSBA
TAF
KSBA 041727Z 0418/0518 17008KT P6SM SCT025
     FM042000 26012KT P6SM SKC
     FM050400 VRB03KT P6SM SKC
     FM051000 VRB03KT P6SM OVC015=



000
FTUS46 KLOX 041700
TAFVNY
TAF
KVNY 041727Z 0418/0518 14006KT P6SM OVC025
     FM041900 15010KT P6SM SKC
     FM050200 VRB03KT P6SM SKC
     FM050800 VRB03KT P6SM OVC015=



000
FTUS46 KLOX 041700
TAFWJF
TAF
KWJF 041727Z 0418/0518 25014KT P6SM SKC
     FM042000 24020G30KT P6SM SKC
     FM042200 23025G35KT P6SM SKC
     FM050200 23018G28KT P6SM SKC
     FM050500 24015KT P6SM SKC=



000
FTUS46 KLOX 041600 AAA
TAFLGB
TAF AMD
KLGB 041603Z 0416/0512 VRB05KT P6SM OVC025
     FM041900 25010KT P6SM BKN024
     FM042100 26015KT P6SM BKN027
     FM050400 25006KT P6SM BKN012
     FM051100 VRB05KT P6SM OVC012=



000
FTUS46 KLOX 041600 AAA
TAFLGB
TAF AMD
KLGB 041603Z 0416/0512 VRB05KT P6SM OVC025
     FM041900 25010KT P6SM BKN024
     FM042100 26015KT P6SM BKN027
     FM050400 25006KT P6SM BKN012
     FM051100 VRB05KT P6SM OVC012=



000
FTUS46 KLOX 041600 AAC
TAFBUR
TAF AMD
KBUR 041603Z 0416/0512 VRB05KT P6SM BKN015
     FM041800 18010KT P6SM SKC
     FM050300 VRB05KT P6SM SCT020
     FM051100 VRB05KT P6SM BKN020=



000
FTUS46 KLOX 041500 AAA
TAFPRB
TAF AMD
KPRB 041554Z 0416/0512 VRB03KT P6SM OVC010
     FM041900 21012KT P6SM SKC
     FM042100 21014G24KT P6SM SKC
     FM050300 20008KT P6SM BKN010
     FM050600 VRB05KT P6SM OVC010=



000
FTUS46 KLOX 041400 AAC
TAFLAX
TAF AMD
KLAX 041451Z 0415/0518 24006KT P6SM FEW010 BKN025
     FM041800 24007KT P6SM SCT025
     FM042000 25010KT P6SM FEW025
     FM042200 26015KT P6SM FEW025
     FM050400 25006KT P6SM BKN012
     FM051400 VRB05KT P6SM OVC012=



000
FTUS46 KLOX 041400 AAA
TAFSBA
TAF AMD
KSBA 041405Z 0414/0512 VRB05KT P6SM SCT015
     FM041600 17005KT P6SM SKC
     FM041900 26012G20KT P6SM SCT022
     FM050500 26006KT P6SM BKN015=



000
FTUS46 KLOX 041400 AAB
TAFBUR
TAF AMD
KBUR 041405Z 0414/0512 VRB05KT P6SM BKN015
     FM041600 16005KT P6SM SKC
     FM041800 18010KT P6SM SKC
     FM050300 VRB05KT P6SM SCT020
     FM051100 VRB05KT P6SM BKN020=



000
FTUS46 KLOX 041400 AAB
TAFLAX
TAF AMD
KLAX 041405Z 0414/0518 24006KT P6SM FEW010 BKN025
     FM041700 24007KT P6SM SCT025
     FM041900 25010KT P6SM FEW025
     FM042100 26015KT P6SM FEW025
     FM050400 25006KT P6SM BKN012
     FM051400 VRB05KT P6SM OVC012=



000
FTUS46 KLOX 041400 AAA
TAFSBA
TAF AMD
KSBA 041405Z 0414/0512 VRB05KT P6SM SCT015
     FM041600 17005KT P6SM SKC
     FM041900 26012G20KT P6SM SCT022
     FM050500 26006KT P6SM BKN015=



000
FTUS46 KLOX 041400 AAB
TAFLAX
TAF AMD
KLAX 041405Z 0414/0518 24006KT P6SM FEW010 BKN025
     FM041700 24007KT P6SM SCT025
     FM041900 25010KT P6SM FEW025
     FM042100 26015KT P6SM FEW025
     FM050400 25006KT P6SM BKN012
     FM051400 VRB05KT P6SM OVC012=



000
FTUS46 KLOX 041400 AAB
TAFBUR
TAF AMD
KBUR 041405Z 0414/0512 VRB05KT P6SM BKN015
     FM041600 16005KT P6SM SKC
     FM041800 18010KT P6SM SKC
     FM050300 VRB05KT P6SM SCT020
     FM051100 VRB05KT P6SM BKN020=



000
FTUS46 KLOX 041300 AAB
TAFVNY
TAF AMD
KVNY 041323Z 0413/0512 VRB05KT P6SM BKN015
     FM041800 16010KT P6SM SCT026 SCT050
     FM050400 VRB05KT P6SM BKN020
     FM051000 VRB05KT P6SM OVC020=



000
FTUS46 KLOX 041300 AAB
TAFVNY
TAF AMD
KVNY 041323Z 0413/0512 VRB05KT P6SM BKN015
     FM041800 16010KT P6SM SCT026 SCT050
     FM050400 VRB05KT P6SM BKN020
     FM051000 VRB05KT P6SM OVC020=



000
FTUS46 KLOX 041300 AAA
TAFLAX
TAF AMD
KLAX 041313Z 0413/0518 21005KT P6SM FEW010 BKN020
     FM041400 21007KT P6SM BKN012
     FM041900 25010KT P6SM BKN022
     FM042100 26015KT P6SM BKN022
     FM050400 25006KT P6SM BKN012
     FM051400 VRB05KT P6SM OVC012=



000
FTUS46 KLOX 041300 AAA
TAFLAX
TAF AMD
KLAX 041313Z 0413/0518 21005KT P6SM FEW010 BKN020
     FM041400 21007KT P6SM BKN012
     FM041900 25010KT P6SM BKN022
     FM042100 26015KT P6SM BKN022
     FM050400 25006KT P6SM BKN012
     FM051400 VRB05KT P6SM OVC012=



000
FTUS46 KLOX 041300 AAA
TAFSMX
TAF AMD
KSMX 041307Z 0413/0512 VRB05KT P6SM OVC020
     FM041700 28005KT P6SM BKN020
     FM041900 30008KT P6SM SCT025
     FM042200 30013KT P6SM SKC
     FM050300 VRB05KT P6SM BKN015
     FM050500 VRB05KT P6SM OVC015=



000
FTUS46 KLOX 041300 AAA
TAFWJF
TAF AMD
KWJF 041307Z 0413/0512 24012KT P6SM SKC
     FM041900 23012KT P6SM FEW050
     FM042100 23025G35KT P6SM SCT050
     FM050300 24014KT P6SM FEW250=



000
FTUS46 KLOX 041300 AAA
TAFWJF
TAF AMD
KWJF 041307Z 0413/0512 24012KT P6SM SKC
     FM041900 23012KT P6SM FEW050
     FM042100 23025G35KT P6SM SCT050
     FM050300 24014KT P6SM FEW250=



000
FTUS46 KLOX 041300 AAA
TAFSMX
TAF AMD
KSMX 041307Z 0413/0512 VRB05KT P6SM OVC020
     FM041700 28005KT P6SM BKN020
     FM041900 30008KT P6SM SCT025
     FM042200 30013KT P6SM SKC
     FM050300 VRB05KT P6SM BKN015
     FM050500 VRB05KT P6SM OVC015=



000
FTUS46 KLOX 041300 AAA
TAFBUR
TAF AMD
KBUR 041306Z 0413/0512 VRB05KT P6SM SCT015
     FM041600 16005KT P6SM BKN022
     FM041800 18010KT P6SM SCT027 SCT050
     FM050300 VRB05KT P6SM SCT020
     FM051100 VRB05KT P6SM BKN020=



000
FTUS46 KLOX 041300 AAA
TAFVNY
TAF AMD
KVNY 041306Z 0413/0512 VRB05KT P6SM SCT013
     FM041600 14004KT P6SM BKN021
     FM041800 16010KT P6SM SCT026 SCT050
     FM050400 VRB05KT P6SM BKN020
     FM051000 VRB05KT P6SM OVC020=



000
FTUS46 KLOX 041300 AAA
TAFVNY
TAF AMD
KVNY 041306Z 0413/0512 VRB05KT P6SM SCT013
     FM041600 14004KT P6SM BKN021
     FM041800 16010KT P6SM SCT026 SCT050
     FM050400 VRB05KT P6SM BKN020
     FM051000 VRB05KT P6SM OVC020=



000
FTUS46 KLOX 041300 AAA
TAFBUR
TAF AMD
KBUR 041306Z 0413/0512 VRB05KT P6SM SCT015
     FM041600 16005KT P6SM BKN022
     FM041800 18010KT P6SM SCT027 SCT050
     FM050300 VRB05KT P6SM SCT020
     FM051100 VRB05KT P6SM BKN020=



000
FTUS46 KLOX 041100 RRA
TAFSBP
TAF
KSBP 041142Z 0412/0512 VRB05KT P6SM OVC020
     FM041500 27005KT P6SM BKN020
     FM041900 28008KT P6SM SCT020
     FM042100 29010KT P6SM SKC
     FM050300 VRB05KT P6SM BKN015
     FM050600 VRB05KT P6SM OVC015=



000
FTUS46 KLOX 041100 RRA
TAFSBA
TAF
KSBA 041142Z 0412/0512 VRB05KT P6SM SCT015
     FM041400 11003KT P6SM OVC012
     FM041600 17005KT P6SM BKN017
     FM041900 26012G20KT P6SM SCT022
     FM050500 26006KT P6SM BKN015=



000
FTUS46 KLOX 041100 RRA
TAFPRB
TAF
KPRB 041142Z 0412/0512 30007KT 6SM BR OVC007
     FM041700 25005KT P6SM BKN010
     FM041900 21012KT P6SM SKC
     FM042100 21014G24KT P6SM SKC
     FM050300 20008KT P6SM BKN010
     FM050600 VRB05KT P6SM OVC010=



000
FTUS46 KLOX 041100 RRA
TAFSMX
TAF
KSMX 041142Z 0412/0512 VRB05KT P6SM OVC019
     FM041500 VRB03KT 6SM BR BKN007 OVC015
     FM041700 28005KT P6SM BKN020
     FM041900 30008KT P6SM SCT025
     FM042200 30013KT P6SM SKC
     FM050300 VRB05KT P6SM BKN015
     FM050500 VRB05KT P6SM OVC015=



000
FTUS46 KLOX 041100 RRA
TAFBUR
TAF
KBUR 041140Z 0412/0512 VRB05KT P6SM SCT015
     FM041300 VRB03KT P6SM OVC015
     FM041600 16005KT P6SM BKN022
     FM041800 18010KT P6SM SCT027 SCT050
     FM050300 VRB05KT P6SM SCT020
     FM051100 VRB05KT P6SM BKN020=



000
FTUS46 KLOX 041100 RRA
TAFVNY
TAF
KVNY 041140Z 0412/0512 VRB05KT P6SM BKN013
     FM041300 VRB03KT P6SM OVC013
     FM041600 14004KT P6SM BKN021
     FM041800 16010KT P6SM SCT026 SCT050
     FM050400 VRB05KT P6SM BKN020
     FM051000 VRB05KT P6SM OVC020=



000
FTUS46 KLOX 041100 RRA
TAFPMD
TAF
KPMD 041140Z 0412/0512 24009KT P6SM SKC
     FM041800 24012KT P6SM FEW050
     FM042200 23025G35KT P6SM SCT050
     FM050300 24014KT P6SM FEW250=



000
FTUS46 KLOX 041100 RRA
TAFWJF
TAF
KWJF 041140Z 0412/0512 23015KT P6SM SKC
     FM041900 23012KT P6SM FEW050
     FM042100 23025G35KT P6SM SCT050
     FM050300 24014KT P6SM FEW250=



000
FTUS46 KLOX 041100 RRA
TAFLGB
TAF
KLGB 041140Z 0412/0512 VRB05KT P6SM OVC025
     FM041600 25007KT P6SM OVC019
     FM041900 25010KT P6SM BKN024
     FM042100 26015KT P6SM BKN027
     FM050400 25006KT P6SM BKN012
     FM051100 VRB05KT P6SM OVC012=



000
FTUS46 KLOX 041100
TAFLAX
TAF
KLAX 041139Z 0412/0518 21005KT P6SM SCT020
     FM041400 21007KT P6SM BKN012
     FM041600 24007KT P6SM OVC017
     FM041900 25010KT P6SM BKN022
     FM042100 26015KT P6SM BKN022
     FM050400 25006KT P6SM BKN012
     FM051400 VRB05KT P6SM OVC012=



000
FTUS46 KLOX 041100 AAC
TAFSBP
TAF AMD
KSBP 041118Z 0411/0506 VRB05KT P6SM OVC020
     FM041500 27005KT P6SM BKN020
     FM041900 28008KT P6SM SCT020
     FM042100 29010KT P6SM SKC
     FM050300 VRB05KT P6SM BKN015=



000
FTUS46 KLOX 041100 AAC
TAFSBP
TAF AMD
KSBP 041118Z 0411/0506 VRB05KT P6SM OVC020
     FM041500 27005KT P6SM BKN020
     FM041900 28008KT P6SM SCT020
     FM042100 29010KT P6SM SKC
     FM050300 VRB05KT P6SM BKN015=



000
FTUS46 KLOX 041000 AAB
TAFPRB
TAF AMD
KPRB 041048Z 0411/0506 29006KT P6SM BKN009
     FM041200 VRB03KT 6SM BR OVC006
     FM041700 25005KT P6SM BKN010
     FM041900 21012KT P6SM SKC
     FM042100 21014G24KT P6SM SKC
     FM050200 20008KT P6SM BKN010=



000
FTUS46 KLOX 041000 AAB
TAFPRB
TAF AMD
KPRB 041048Z 0411/0506 29006KT P6SM BKN009
     FM041200 VRB03KT 6SM BR OVC006
     FM041700 25005KT P6SM BKN010
     FM041900 21012KT P6SM SKC
     FM042100 21014G24KT P6SM SKC
     FM050200 20008KT P6SM BKN010=



000
FTUS46 KLOX 041000 AAB
TAFSBP
TAF AMD
KSBP 041047Z 0411/0506 VRB05KT P6SM OVC020
     FM041100 VRB03KT 6SM BR BKN007 OVC015
     FM041500 27005KT P6SM BKN020
     FM041900 28008KT P6SM SCT020
     FM042100 29010KT P6SM SKC
     FM050300 VRB05KT P6SM BKN015=



000
FTUS46 KLOX 041000 AAB
TAFSMX
TAF AMD
KSMX 041047Z 0411/0506 VRB05KT P6SM OVC020
     FM041300 VRB03KT 6SM BR BKN007 OVC015
     FM041500 28005KT P6SM BKN020
     FM041900 30008KT P6SM SCT025
     FM042200 30013KT P6SM SKC
     FM050300 VRB05KT P6SM BKN015=



000
FTUS46 KLOX 041000 AAA
TAFSBA
TAF AMD
KSBA 041046Z 0411/0506 VRB05KT P6SM SCT015
     FM041200 11003KT P6SM OVC012
     FM041600 17005KT P6SM BKN017
     FM041900 26012G20KT P6SM SCT022
     FM050500 26006KT P6SM BKN015=



000
FTUS46 KLOX 041000 AAC
TAFLGB
TAF AMD
KLGB 041046Z 0411/0506 VRB05KT P6SM BKN024
     FM041600 25007KT P6SM OVC019
     FM041900 25010KT P6SM BKN024
     FM042100 26015KT P6SM BKN027
     FM050400 25006KT P6SM BKN012=



000
FTUS46 KLOX 041000 AAA
TAFSBA
TAF AMD
KSBA 041046Z 0411/0506 VRB05KT P6SM SCT015
     FM041200 11003KT P6SM OVC012
     FM041600 17005KT P6SM BKN017
     FM041900 26012G20KT P6SM SCT022
     FM050500 26006KT P6SM BKN015=



000
FTUS46 KLOX 041000 AAD
TAFLAX
TAF AMD
KLAX 041045Z 0411/0512 24007KT P6SM SCT017
     FM041200 VRB03KT P6SM OVC012
     FM041600 25007KT P6SM OVC017
     FM041900 25010KT P6SM BKN022
     FM042100 26015KT P6SM BKN022
     FM050400 25006KT P6SM BKN012=



000
FTUS46 KLOX 040900 AAB
TAFLGB
TAF AMD
KLGB 040912Z 0409/0506 VRB05KT P6SM SCT019
     FM041000 VRB03KT P6SM OVC014
     FM041600 25007KT P6SM OVC019
     FM041900 25010KT P6SM BKN024
     FM042100 26015KT P6SM BKN027
     FM050400 25006KT P6SM BKN012=



000
FTUS46 KLOX 040800 AAC
TAFLAX
TAF AMD
KLAX 040858Z 0409/0512 24007KT P6SM SCT017
     FM040930 VRB03KT P6SM OVC012
     FM041600 25007KT P6SM OVC017
     FM041900 25010KT P6SM BKN022
     FM042100 26015KT P6SM BKN022
     FM050400 25006KT P6SM BKN012=



000
FTUS46 KLOX 040800 AAC
TAFLAX
TAF AMD
KLAX 040858Z 0409/0512 24007KT P6SM SCT017
     FM040930 VRB03KT P6SM OVC012
     FM041600 25007KT P6SM OVC017
     FM041900 25010KT P6SM BKN022
     FM042100 26015KT P6SM BKN022
     FM050400 25006KT P6SM BKN012=



000
FTUS46 KLOX 040800 AAB
TAFLAX
TAF AMD
KLAX 040854Z 0409/0512 24007KT P6SM SCT017
     FM040900 VRB03KT P6SM OVC012
     FM041600 25007KT P6SM OVC017
     FM041900 25010KT P6SM BKN022
     FM042100 26015KT P6SM BKN022
     FM050400 25006KT P6SM BKN012=



000
FTUS46 KLOX 040800 AAA
TAFSMX
TAF AMD
KSMX 040814Z 0408/0506 VRB05KT P6SM SKC
     FM040930 VRB05KT P6SM BKN015
     FM041100 VRB03KT 6SM BR BKN007 OVC015
     FM041500 28005KT P6SM BKN020
     FM041900 30008KT P6SM SCT025
     FM042200 30013KT P6SM SKC
     FM050300 VRB05KT P6SM BKN015=



000
FTUS46 KLOX 040800 AAA
TAFSMX
TAF AMD
KSMX 040814Z 0408/0506 VRB05KT P6SM SKC
     FM040930 VRB05KT P6SM BKN015
     FM041100 VRB03KT 6SM BR BKN007 OVC015
     FM041500 28005KT P6SM BKN020
     FM041900 30008KT P6SM SCT025
     FM042200 30013KT P6SM SKC
     FM050300 VRB05KT P6SM BKN015=



000
FTUS46 KLOX 040800 AAA
TAFSBP
TAF AMD
KSBP 040813Z 0408/0506 VRB05KT P6SM SKC
     FM040930 VRB05KT P6SM BKN015
     FM041100 VRB03KT 6SM BR BKN007 OVC015
     FM041500 27005KT P6SM BKN020
     FM041900 28008KT P6SM SCT020
     FM042100 29010KT P6SM SKC
     FM050300 VRB05KT P6SM BKN015=



000
FTUS46 KLOX 040800 AAA
TAFPRB
TAF AMD
KPRB 040813Z 0408/0506 VRB05KT P6SM SKC
     FM041000 VRB03KT P6SM BKN010
     FM041200 VRB03KT 6SM BR OVC006
     FM041700 25005KT P6SM BKN010
     FM041900 21012KT P6SM SKC
     FM042100 21014G24KT P6SM SKC
     FM050200 20008KT P6SM BKN010=



000
FTUS46 KLOX 040800 AAA
TAFSBP
TAF AMD
KSBP 040813Z 0408/0506 VRB05KT P6SM SKC
     FM040930 VRB05KT P6SM BKN015
     FM041100 VRB03KT 6SM BR BKN007 OVC015
     FM041500 27005KT P6SM BKN020
     FM041900 28008KT P6SM SCT020
     FM042100 29010KT P6SM SKC
     FM050300 VRB05KT P6SM BKN015=



000
FTUS46 KLOX 040700 AAA
TAFLGB
TAF AMD
KLGB 040714Z 0407/0506 VRB05KT P6SM SCT019
     FM040900 VRB03KT P6SM OVC014
     FM041600 25007KT P6SM OVC019
     FM041900 25010KT P6SM BKN024
     FM042100 26015KT P6SM BKN027
     FM050400 25006KT P6SM BKN012=



000
FTUS46 KLOX 040700 AAA
TAFLGB
TAF AMD
KLGB 040714Z 0407/0506 VRB05KT P6SM SCT019
     FM040900 VRB03KT P6SM OVC014
     FM041600 25007KT P6SM OVC019
     FM041900 25010KT P6SM BKN024
     FM042100 26015KT P6SM BKN027
     FM050400 25006KT P6SM BKN012=



000
FTUS46 KLOX 040600 AAA
TAFLAX
TAF AMD
KLAX 040611Z 0406/0512 24007KT P6SM SCT017
     FM040900 VRB03KT P6SM OVC012
     FM041600 25007KT P6SM OVC017
     FM041900 25010KT P6SM BKN022
     FM042100 26015KT P6SM BKN022
     FM050400 25006KT P6SM BKN012=



000
FTUS46 KLOX 040600 AAA
TAFLAX
TAF AMD
KLAX 040611Z 0406/0512 24007KT P6SM SCT017
     FM040900 VRB03KT P6SM OVC012
     FM041600 25007KT P6SM OVC017
     FM041900 25010KT P6SM BKN022
     FM042100 26015KT P6SM BKN022
     FM050400 25006KT P6SM BKN012=



000
FTUS46 KLOX 040500
TAFPRB
TAF
KPRB 040538Z 0406/0506 20009KT P6SM SKC
     FM040800 VRB03KT P6SM BKN010
     FM041000 VRB03KT 6SM BR OVC006
     FM041700 25005KT P6SM BKN010
     FM041900 21012KT P6SM SKC
     FM042100 21014G24KT P6SM SKC
     FM050200 20008KT P6SM BKN010=



000
FTUS46 KLOX 040500
TAFSBP
TAF
KSBP 040538Z 0406/0506 VRB05KT P6SM SKC
     FM040800 VRB05KT P6SM BKN015
     FM041000 VRB03KT 6SM BR BKN007 OVC015
     FM041500 27005KT P6SM BKN020
     FM041900 28008KT P6SM SCT020
     FM042100 29010KT P6SM SKC
     FM050300 VRB05KT P6SM BKN015=



000
FTUS46 KLOX 040500
TAFPRB
TAF
KPRB 040538Z 0406/0506 20009KT P6SM SKC
     FM040800 VRB03KT P6SM BKN010
     FM041000 VRB03KT 6SM BR OVC006
     FM041700 25005KT P6SM BKN010
     FM041900 21012KT P6SM SKC
     FM042100 21014G24KT P6SM SKC
     FM050200 20008KT P6SM BKN010=



000
FTUS46 KLOX 040500
TAFSBA
TAF
KSBA 040538Z 0406/0506 VRB05KT P6SM SCT015
     FM041000 11003KT P6SM OVC012
     FM041600 17005KT P6SM BKN017
     FM041900 26012G20KT P6SM SCT022
     FM050500 26006KT P6SM BKN015=



000
FTUS46 KLOX 040500
TAFSBA
TAF
KSBA 040538Z 0406/0506 VRB05KT P6SM SCT015
     FM041000 11003KT P6SM OVC012
     FM041600 17005KT P6SM BKN017
     FM041900 26012G20KT P6SM SCT022
     FM050500 26006KT P6SM BKN015=



000
FTUS46 KLOX 040500
TAFSBP
TAF
KSBP 040538Z 0406/0506 VRB05KT P6SM SKC
     FM040800 VRB05KT P6SM BKN015
     FM041000 VRB03KT 6SM BR BKN007 OVC015
     FM041500 27005KT P6SM BKN020
     FM041900 28008KT P6SM SCT020
     FM042100 29010KT P6SM SKC
     FM050300 VRB05KT P6SM BKN015=



000
FTUS46 KLOX 040500
TAFSMX
TAF
KSMX 040538Z 0406/0506 VRB05KT P6SM SKC
     FM040700 VRB05KT P6SM SCT012
     FM040800 VRB05KT P6SM BKN015
     FM041000 VRB03KT 6SM BR BKN007 OVC015
     FM041500 28005KT P6SM BKN020
     FM041900 30008KT P6SM SCT025
     FM042200 30013KT P6SM SKC
     FM050300 VRB05KT P6SM BKN015=



000
FTUS46 KLOX 040500
TAFSMX
TAF
KSMX 040538Z 0406/0506 VRB05KT P6SM SKC
     FM040700 VRB05KT P6SM SCT012
     FM040800 VRB05KT P6SM BKN015
     FM041000 VRB03KT 6SM BR BKN007 OVC015
     FM041500 28005KT P6SM BKN020
     FM041900 30008KT P6SM SCT025
     FM042200 30013KT P6SM SKC
     FM050300 VRB05KT P6SM BKN015=



000
FTUS46 KLOX 040500
TAFWJF
TAF
KWJF 040532Z 0406/0506 23015KT P6SM SKC
     FM040800 25010KT P6SM SKC
     FM041900 23012KT P6SM FEW050
     FM042100 23025G35KT P6SM SCT050
     FM050300 24014KT P6SM FEW250=



000
FTUS46 KLOX 040500
TAFBUR
TAF
KBUR 040532Z 0406/0506 VRB05KT P6SM SKC
     FM041200 VRB03KT P6SM OVC017
     FM041600 16005KT P6SM BKN022
     FM041800 18010KT P6SM SCT027 SCT050
     FM050300 VRB05KT P6SM BKN020=



000
FTUS46 KLOX 040500
TAFLAX
TAF
KLAX 040532Z 0406/0512 27012KT P6SM SCT017
     FM040900 VRB03KT P6SM OVC012
     FM041600 25007KT P6SM OVC017
     FM041900 25010KT P6SM BKN022
     FM042100 26015KT P6SM BKN022
     FM050400 25006KT P6SM BKN012=



000
FTUS46 KLOX 040500
TAFLGB
TAF
KLGB 040532Z 0406/0506 29009KT P6SM SCT019
     FM040700 VRB03KT P6SM OVC014
     FM041600 25007KT P6SM OVC019
     FM041900 25010KT P6SM BKN024
     FM042100 26015KT P6SM BKN027
     FM050400 25006KT P6SM BKN012=



000
FTUS46 KLOX 040500
TAFVNY
TAF
KVNY 040532Z 0406/0506 25005KT P6SM SKC
     FM041200 VRB03KT P6SM OVC016
     FM041600 14004KT P6SM BKN021
     FM041800 16010KT P6SM SCT026 SCT050
     FM050400 VRB05KT P6SM BKN020=



000
FTUS46 KLOX 040500
TAFPMD
TAF
KPMD 040532Z 0406/0506 23013KT P6SM SKC
     FM040700 21008KT P6SM SKC
     FM042000 23012KT P6SM FEW050
     FM042200 23025G35KT P6SM SCT050
     FM050300 24014KT P6SM FEW250=



000
FTUS46 KLOX 040500
TAFSMX
TAF
KSMX 040526Z 0406/0506 VRB05KT P6SM SKC
     FM040700 VRB05KT P6SM SCT012
     FM040800 VRB05KT P6SM BKN015
     FM041000 VRB03KT 6SM BR BKN007 OVC015
     FM041500 28005KT P6SM BKN020
     FM041900 30008KT P6SM SCT025
     FM042200 30013KT P6SM SKC=



000
FTUS46 KLOX 040500 AAA
TAFSBP
TAF AMD
KSBP 040524Z 0405/0424 29010KT P6SM SKC
     FM040800 31006KT P6SM BKN015
     FM041000 VRB03KT 6SM BR BKN007 OVC015
     FM041500 27005KT P6SM BKN020
     FM041900 28008KT P6SM SCT020
     FM042100 29010KT P6SM SKC=



000
FTUS46 KLOX 040500 AAA
TAFSMX
TAF AMD
KSMX 040524Z 0405/0424 29012KT P6SM SKC
     FM040600 30008KT P6SM SCT012
     FM040800 30006KT P6SM BKN015
     FM041000 VRB03KT 6SM BR BKN007 OVC015
     FM041500 28005KT P6SM BKN020
     FM041900 30008KT P6SM SCT025
     FM042200 30013KT P6SM SKC=



000
FTUS46 KLOX 040300 AAA
TAFWJF
TAF AMD
KWJF 040311Z 0403/0424 23015KT P6SM SKC
     FM040800 25010KT P6SM SKC
     FM041900 23012KT P6SM FEW050
     FM042100 23025G35KT P6SM SCT050=



000
FTUS46 KLOX 040300 AAA
TAFLAX
TAF AMD
KLAX 040310Z 0403/0506 27012KT P6SM SKC
     FM040430 26008KT P6SM SCT017
     FM040900 VRB03KT P6SM OVC012
     FM041600 25007KT P6SM OVC017
     FM041900 25010KT P6SM BKN022
     FM042100 26015G20KT P6SM SCT025
     FM050400 25006KT P6SM BKN012=



000
FTUS46 KLOX 040300 AAA
TAFLAX
TAF AMD
KLAX 040310Z 0403/0506 27012KT P6SM SKC
     FM040430 26008KT P6SM SCT017
     FM040900 VRB03KT P6SM OVC012
     FM041600 25007KT P6SM OVC017
     FM041900 25010KT P6SM BKN022
     FM042100 26015G20KT P6SM SCT025
     FM050400 25006KT P6SM BKN012=



000
FTUS46 KLOX 040100 AAA
TAFVNY
TAF AMD
KVNY 040124Z 0401/0424 15008KT P6SM SKC
     FM040300 12004KT P6SM SKC
     FM041200 VRB03KT P6SM OVC016
     FM041600 14004KT P6SM BKN021
     FM041800 16010KT P6SM SCT026 SCT050=



000
FTUS46 KLOX 040100 AAA
TAFVNY
TAF AMD
KVNY 040124Z 0401/0424 15008KT P6SM SKC
     FM040300 12004KT P6SM SKC
     FM041200 VRB03KT P6SM OVC016
     FM041600 14004KT P6SM BKN021
     FM041800 16010KT P6SM SCT026 SCT050=



000
FTUS46 KLOX 032300 RRA
TAFLGB
TAF
KLGB 032350Z 0400/0424 30012KT P6SM SKC
     FM040300 30008KT P6SM SCT019
     FM040700 VRB03KT P6SM OVC014
     FM041600 25007KT P6SM OVC019
     FM041900 25010KT P6SM BKN024
     FM042100 26015G20KT P6SM SCT027=



000
FTUS46 KLOX 032300 RRA
TAFSMX
TAF
KSMX 032350Z 0400/0424 29012KT P6SM SKC
     FM040300 30008KT P6SM SCT012
     FM040600 30006KT P6SM BKN015
     FM041000 VRB03KT 6SM BR BKN007 OVC015
     FM041500 28005KT P6SM BKN020
     FM041900 30008KT P6SM SCT025
     FM042200 30013KT P6SM SKC=



000
FTUS46 KLOX 032300 RRA
TAFVNY
TAF
KVNY 032350Z 0400/0424 15010G16KT P6SM SKC
     FM040300 12004KT P6SM SKC
     FM041200 VRB03KT P6SM OVC016
     FM041600 14004KT P6SM BKN021
     FM041800 16010KT P6SM SCT026 SCT050=



000
FTUS46 KLOX 032300 RRA
TAFSBP
TAF
KSBP 032350Z 0400/0424 29010KT P6SM SKC
     FM040500 31006KT P6SM BKN015
     FM041000 VRB03KT 6SM BR BKN007 OVC015
     FM041500 27005KT P6SM BKN020
     FM041900 28008KT P6SM SCT020
     FM042100 29010KT P6SM SKC=



000
FTUS46 KLOX 032300 RRA
TAFSBA
TAF
KSBA 032350Z 0400/0424 26012G20KT P6SM SKC
     FM040300 28005KT P6SM SKC
     FM040500 08006KT P6SM SCT015
     FM041000 11003KT P6SM OVC012
     FM041600 17005KT P6SM BKN017
     FM041900 26012G20KT P6SM SCT022=



000
FTUS46 KLOX 032300 RRA
TAFPRB
TAF
KPRB 032350Z 0400/0424 22012G20KT P6SM SKC
     FM040200 22010KT P6SM SKC
     FM040400 21006KT P6SM SCT010
     FM040700 VRB03KT P6SM BKN010
     FM041000 VRB03KT 6SM BR OVC006
     FM041700 25005KT P6SM BKN010
     FM041900 21012KT P6SM SKC
     FM042100 21014G22KT P6SM SKC=



000
FTUS46 KLOX 032300 RRA
TAFPMD
TAF
KPMD 032350Z 0400/0424 23024G32KT P6SM FEW090
     FM040130 24016G24KT P6SM SKC
     FM040300 23012KT P6SM SKC
     FM040700 21008KT P6SM SKC
     FM042000 23012KT P6SM FEW050
     FM042200 23025G35KT P6SM SCT050=



000
FTUS46 KLOX 032300 RRA
TAFWJF
TAF
KWJF 032350Z 0400/0424 23024G32KT P6SM FEW090
     FM040130 24018G26KT P6SM SKC
     FM040300 25015KT P6SM SKC
     FM041000 25010KT P6SM SKC
     FM041900 23012KT P6SM FEW050
     FM042100 23025G35KT P6SM SCT050=



000
FTUS46 KLOX 032300 RRA
TAFSMX
TAF
KSMX 032350Z 0400/0424 29012KT P6SM SKC
     FM040300 30008KT P6SM SCT012
     FM040600 30006KT P6SM BKN015
     FM041000 VRB03KT 6SM BR BKN007 OVC015
     FM041500 28005KT P6SM BKN020
     FM041900 30008KT P6SM SCT025
     FM042200 30013KT P6SM SKC=



000
FTUS46 KLOX 032300 RRA
TAFLGB
TAF
KLGB 032350Z 0400/0424 30012KT P6SM SKC
     FM040300 30008KT P6SM SCT019
     FM040700 VRB03KT P6SM OVC014
     FM041600 25007KT P6SM OVC019
     FM041900 25010KT P6SM BKN024
     FM042100 26015G20KT P6SM SCT027=



000
FTUS46 KLOX 032300 RRA
TAFVNY
TAF
KVNY 032350Z 0400/0424 15010G16KT P6SM SKC
     FM040300 12004KT P6SM SKC
     FM041200 VRB03KT P6SM OVC016
     FM041600 14004KT P6SM BKN021
     FM041800 16010KT P6SM SCT026 SCT050=



000
FTUS46 KLOX 032300 RRA
TAFSBP
TAF
KSBP 032350Z 0400/0424 29010KT P6SM SKC
     FM040500 31006KT P6SM BKN015
     FM041000 VRB03KT 6SM BR BKN007 OVC015
     FM041500 27005KT P6SM BKN020
     FM041900 28008KT P6SM SCT020
     FM042100 29010KT P6SM SKC=



000
FTUS46 KLOX 032300 RRA
TAFWJF
TAF
KWJF 032350Z 0400/0424 23024G32KT P6SM FEW090
     FM040130 24018G26KT P6SM SKC
     FM040300 25015KT P6SM SKC
     FM041000 25010KT P6SM SKC
     FM041900 23012KT P6SM FEW050
     FM042100 23025G35KT P6SM SCT050=



000
FTUS46 KLOX 032300 RRA
TAFSBA
TAF
KSBA 032350Z 0400/0424 26012G20KT P6SM SKC
     FM040300 28005KT P6SM SKC
     FM040500 08006KT P6SM SCT015
     FM041000 11003KT P6SM OVC012
     FM041600 17005KT P6SM BKN017
     FM041900 26012G20KT P6SM SCT022=



000
FTUS46 KLOX 032300 RRA
TAFPRB
TAF
KPRB 032350Z 0400/0424 22012G20KT P6SM SKC
     FM040200 22010KT P6SM SKC
     FM040400 21006KT P6SM SCT010
     FM040700 VRB03KT P6SM BKN010
     FM041000 VRB03KT 6SM BR OVC006
     FM041700 25005KT P6SM BKN010
     FM041900 21012KT P6SM SKC
     FM042100 21014G22KT P6SM SKC=



000
FTUS46 KLOX 032300 RRA
TAFPMD
TAF
KPMD 032350Z 0400/0424 23024G32KT P6SM FEW090
     FM040130 24016G24KT P6SM SKC
     FM040300 23012KT P6SM SKC
     FM040700 21008KT P6SM SKC
     FM042000 23012KT P6SM FEW050
     FM042200 23025G35KT P6SM SCT050=



000
FTUS46 KLOX 032300
TAFBUR
TAF
KBUR 032320Z 0400/0424 18010KT P6SM SKC
     FM040200 14005KT P6SM SKC
     FM041200 VRB03KT P6SM OVC017
     FM041600 16005KT P6SM BKN022
     FM041800 18010KT P6SM SCT027 SCT050=



000
FTUS46 KLOX 032300
TAFLAX
TAF
KLAX 032320Z 0400/0506 26015G20KT P6SM SKC
     FM040300 26008KT P6SM SCT017
     FM040900 VRB03KT P6SM OVC012
     FM041600 25007KT P6SM OVC017
     FM041900 25010KT P6SM BKN022
     FM042100 26015G20KT P6SM SCT025
     FM050400 25006KT P6SM BKN012=



000
FTUS46 KLOX 032300
TAFLAX
TAF
KLAX 032320Z 0400/0506 26015G20KT P6SM SKC
     FM040300 26008KT P6SM SCT017
     FM040900 VRB03KT P6SM OVC012
     FM041600 25007KT P6SM OVC017
     FM041900 25010KT P6SM BKN022
     FM042100 26015G20KT P6SM SCT025
     FM050400 25006KT P6SM BKN012=



000
FTUS46 KLOX 032300
TAFBUR
TAF
KBUR 032320Z 0400/0424 18010KT P6SM SKC
     FM040200 14005KT P6SM SKC
     FM041200 VRB03KT P6SM OVC017
     FM041600 16005KT P6SM BKN022
     FM041800 18010KT P6SM SCT027 SCT050=



000
FTUS46 KLOX 032100 AAA
TAFVNY
TAF AMD
KVNY 032122Z 0321/0418 16010KT P6SM SKC
     FM040200 12006KT P6SM SKC
     FM040600 VRB03KT P6SM OVC015
     FM041200 VRB03KT P6SM OVC020=



000
FTUS46 KLOX 032100 AAA
TAFSMX
TAF AMD
KSMX 032121Z 0321/0418 27012KT P6SM SKC
     FM040200 30006KT P6SM OVC012
     FM040500 VRB03KT P6SM OVC015
     FM041500 VRB03KT P6SM SCT015 OVC025=



000
FTUS46 KLOX 032000 AAA
TAFLAX
TAF AMD
KLAX 032050Z 0321/0424 26015KT P6SM FEW025
     FM040300 26008KT P6SM BKN015
     FM040600 VRB03KT P6SM SCT015 OVC025
     FM041700 26008KT P6SM SCT015 BKN025
     FM042000 27014KT P6SM SCT030=



000
FTUS46 KLOX 031700
TAFSMX
TAF
KSMX 031726Z 0318/0418 VRB03KT P6SM SCT020
     FM031900 31010KT P6SM SKC
     FM040200 30006KT P6SM OVC012
     FM040500 VRB03KT P6SM OVC015
     FM041500 VRB03KT P6SM SCT015 OVC025=



000
FTUS46 KLOX 031700
TAFLGB
TAF
KLGB 031726Z 0318/0418 21008KT P6SM SKC
     FM032200 30012KT P6SM SKC
     FM040400 VRB03KT P6SM SKC
     FM040600 VRB03KT P6SM OVC015
     FM041000 VRB03KT P6SM SCT015 OVC025=



000
FTUS46 KLOX 031700
TAFLAX
TAF
KLAX 031726Z 0318/0424 26008KT P6SM FEW025
     FM032000 26015KT P6SM FEW025
     FM040300 26008KT P6SM BKN015
     FM040600 VRB03KT P6SM SCT015 OVC025
     FM041700 26008KT P6SM SCT015 BKN025
     FM042000 27014KT P6SM SCT030=



000
FTUS46 KLOX 031700
TAFPRB
TAF
KPRB 031726Z 0318/0418 21008KT P6SM SKC
     FM032000 22015G25KT P6SM SKC
     FM040000 22012KT P6SM SKC
     FM040500 VRB03KT P6SM SKC
     FM040700 VRB03KT P6SM OVC010
     FM041000 VRB03KT P6SM OVC008=



000
FTUS46 KLOX 031700
TAFWJF
TAF
KWJF 031726Z 0318/0418 24018G28KT P6SM SKC
     FM032000 24025G35KT P6SM SKC
     FM040200 24020G30KT P6SM SKC
     FM040500 25015KT P6SM SKC
     FM041000 24010KT P6SM SKC=



000
FTUS46 KLOX 031700
TAFVNY
TAF
KVNY 031726Z 0318/0418 VRB03KT P6SM SKC
     FM032000 15008KT P6SM SKC
     FM040200 12006KT P6SM SKC
     FM040600 VRB03KT P6SM OVC015
     FM041200 VRB03KT P6SM OVC020=



000
FTUS46 KLOX 031700
TAFSBP
TAF
KSBP 031726Z 0318/0418 VRB03KT P6SM SCT015 BKN025
     FM031900 23007KT P6SM SCT025
     FM032100 29010KT P6SM SKC
     FM040400 VRB03KT P6SM OVC012
     FM041500 VRB03KT P6SM SCT015 OVC025=



000
FTUS46 KLOX 031700
TAFSBA
TAF
KSBA 031726Z 0318/0418 21006KT P6SM OVC018
     FM031900 26012KT P6SM FEW020
     FM040400 VRB03KT P6SM SCT015
     FM040600 VRB03KT P6SM OVC015
     FM041200 VRB03KT P6SM SCT015 OVC025=



000
FTUS46 KLOX 031700
TAFBUR
TAF
KBUR 031726Z 0318/0418 VRB03KT P6SM SKC
     FM031900 17010KT P6SM SKC
     FM040200 12006KT P6SM SKC
     FM040600 VRB03KT P6SM OVC015
     FM041200 VRB03KT P6SM OVC020=



000
FTUS46 KLOX 031700
TAFPMD
TAF
KPMD 031726Z 0318/0418 23014KT P6SM SKC
     FM031900 23018G25KT P6SM SKC
     FM032200 23022G32KT P6SM SKC
     FM040200 24016G24KT P6SM SKC
     FM040500 23012KT P6SM SKC=



000
FTUS46 KLOX 031700
TAFSBP
TAF
KSBP 031726Z 0318/0418 VRB03KT P6SM SCT015 BKN025
     FM031900 23007KT P6SM SCT025
     FM032100 29010KT P6SM SKC
     FM040400 VRB03KT P6SM OVC012
     FM041500 VRB03KT P6SM SCT015 OVC025=



000
FTUS46 KLOX 031700
TAFPMD
TAF
KPMD 031726Z 0318/0418 23014KT P6SM SKC
     FM031900 23018G25KT P6SM SKC
     FM032200 23022G32KT P6SM SKC
     FM040200 24016G24KT P6SM SKC
     FM040500 23012KT P6SM SKC=



000
FTUS46 KLOX 031700
TAFWJF
TAF
KWJF 031726Z 0318/0418 24018G28KT P6SM SKC
     FM032000 24025G35KT P6SM SKC
     FM040200 24020G30KT P6SM SKC
     FM040500 25015KT P6SM SKC
     FM041000 24010KT P6SM SKC=



000
FTUS46 KLOX 031700
TAFBUR
TAF
KBUR 031726Z 0318/0418 VRB03KT P6SM SKC
     FM031900 17010KT P6SM SKC
     FM040200 12006KT P6SM SKC
     FM040600 VRB03KT P6SM OVC015
     FM041200 VRB03KT P6SM OVC020=



000
FTUS46 KLOX 031700
TAFVNY
TAF
KVNY 031726Z 0318/0418 VRB03KT P6SM SKC
     FM032000 15008KT P6SM SKC
     FM040200 12006KT P6SM SKC
     FM040600 VRB03KT P6SM OVC015
     FM041200 VRB03KT P6SM OVC020=



000
FTUS46 KLOX 031700
TAFPRB
TAF
KPRB 031726Z 0318/0418 21008KT P6SM SKC
     FM032000 22015G25KT P6SM SKC
     FM040000 22012KT P6SM SKC
     FM040500 VRB03KT P6SM SKC
     FM040700 VRB03KT P6SM OVC010
     FM041000 VRB03KT P6SM OVC008=



000
FTUS46 KLOX 031700
TAFLGB
TAF
KLGB 031726Z 0318/0418 21008KT P6SM SKC
     FM032200 30012KT P6SM SKC
     FM040400 VRB03KT P6SM SKC
     FM040600 VRB03KT P6SM OVC015
     FM041000 VRB03KT P6SM SCT015 OVC025=



000
FTUS46 KLOX 031700
TAFSBA
TAF
KSBA 031726Z 0318/0418 21006KT P6SM OVC018
     FM031900 26012KT P6SM FEW020
     FM040400 VRB03KT P6SM SCT015
     FM040600 VRB03KT P6SM OVC015
     FM041200 VRB03KT P6SM SCT015 OVC025=



000
FTUS46 KLOX 031700
TAFLAX
TAF
KLAX 031726Z 0318/0424 26008KT P6SM FEW025
     FM032000 26015KT P6SM FEW025
     FM040300 26008KT P6SM BKN015
     FM040600 VRB03KT P6SM SCT015 OVC025
     FM041700 26008KT P6SM SCT015 BKN025
     FM042000 27014KT P6SM SCT030=



000
FTUS46 KLOX 031700
TAFSMX
TAF
KSMX 031726Z 0318/0418 VRB03KT P6SM SCT020
     FM031900 31010KT P6SM SKC
     FM040200 30006KT P6SM OVC012
     FM040500 VRB03KT P6SM OVC015
     FM041500 VRB03KT P6SM SCT015 OVC025=



000
FTUS46 KLOX 031600 AAA
TAFSBP
TAF AMD
KSBP 031609Z 0316/0412 VRB03KT P6SM BKN015 OVC025
     FM032000 22010KT P6SM SCT025
     FM040400 VRB03KT P6SM BKN015
     FM040700 VRB03KT P6SM OVC021=



000
FTUS46 KLOX 031600 AAB
TAFPRB
TAF AMD
KPRB 031609Z 0316/0412 VRB03KT P6SM BKN008
     FM031700 VRB03KT P6SM SKC
     FM032000 22015G20KT P6SM SKC
     FM040200 20010KT P6SM SKC
     FM040800 VRB03KT P6SM SKC
     FM041000 VRB03KT P6SM OVC010=



000
FTUS46 KLOX 031500 AAA
TAFPRB
TAF AMD
KPRB 031535Z 0316/0412 VRB03KT P6SM OVC005
     FM031700 VRB03KT P6SM SKC
     FM032000 22015G20KT P6SM SKC
     FM040200 20010KT P6SM SKC
     FM040800 VRB03KT P6SM SKC
     FM041000 VRB03KT P6SM OVC010=



000
FTUS46 KLOX 031500 AAA
TAFPRB
TAF AMD
KPRB 031535Z 0316/0412 VRB03KT P6SM OVC005
     FM031700 VRB03KT P6SM SKC
     FM032000 22015G20KT P6SM SKC
     FM040200 20010KT P6SM SKC
     FM040800 VRB03KT P6SM SKC
     FM041000 VRB03KT P6SM OVC010=



000
FTUS46 KLOX 031500 AAC
TAFBUR
TAF AMD
KBUR 031534Z 0316/0412 VRB03KT P6SM FEW015
     FM031700 14006KT P6SM SKC
     FM031900 18008KT P6SM SKC
     FM040300 12006KT P6SM SKC
     FM040400 17006KT P6SM OVC015
     FM040700 VRB03KT P6SM OVC020=



000
FTUS46 KLOX 031400 AAB
TAFLAX
TAF AMD
KLAX 031450Z 0315/0418 VRB03KT P6SM BKN021
     FM031700 24008KT P6SM BKN021
     FM032200 25012KT P6SM SCT025
     FM040300 25012KT P6SM BKN015
     FM040700 26006KT P6SM OVC015
     FM041600 24006KT P6SM OVC025=



000
FTUS46 KLOX 031400 AAB
TAFLAX
TAF AMD
KLAX 031450Z 0315/0418 VRB03KT P6SM BKN021
     FM031700 24008KT P6SM BKN021
     FM032200 25012KT P6SM SCT025
     FM040300 25012KT P6SM BKN015
     FM040700 26006KT P6SM OVC015
     FM041600 24006KT P6SM OVC025=



000
FTUS46 KLOX 031400 AAA
TAFVNY
TAF AMD
KVNY 031415Z 0314/0412 VRB03KT P6SM SCT015
     FM032100 15010KT P6SM SKC
     FM040200 VRB03KT P6SM SKC
     FM040400 14005KT P6SM OVC015
     FM040800 VRB03KT P6SM OVC020=



000
FTUS46 KLOX 031400 AAB
TAFBUR
TAF AMD
KBUR 031411Z 0314/0412 VRB03KT P6SM SCT015
     FM031500 VRB03KT P6SM BKN015
     FM031700 14006KT P6SM SCT020
     FM031900 18008KT P6SM SCT025
     FM040300 12006KT P6SM SKC
     FM040400 17006KT P6SM OVC015
     FM040700 VRB03KT P6SM OVC020=



000
FTUS46 KLOX 031400 AAB
TAFLGB
TAF AMD
KLGB 031411Z 0314/0412 VRB03KT P6SM OVC020
     FM032000 20006KT P6SM SCT025
     FM032200 28012KT P6SM SKC
     FM040400 VRB03KT P6SM OVC015
     FM041000 VRB03KT P6SM OVC025=



000
FTUS46 KLOX 031400 AAB
TAFLGB
TAF AMD
KLGB 031411Z 0314/0412 VRB03KT P6SM OVC020
     FM032000 20006KT P6SM SCT025
     FM032200 28012KT P6SM SKC
     FM040400 VRB03KT P6SM OVC015
     FM041000 VRB03KT P6SM OVC025=



000
FTUS46 KLOX 031400 AAB
TAFBUR
TAF AMD
KBUR 031411Z 0314/0412 VRB03KT P6SM SCT015
     FM031500 VRB03KT P6SM BKN015
     FM031700 14006KT P6SM SCT020
     FM031900 18008KT P6SM SCT025
     FM040300 12006KT P6SM SKC
     FM040400 17006KT P6SM OVC015
     FM040700 VRB03KT P6SM OVC020=



000
FTUS46 KLOX 031300 AAA
TAFLAX
TAF AMD
KLAX 031303Z 0313/0418 VRB03KT P6SM BKN021
     FM031700 24008KT P6SM BKN021
     FM032200 25012KT P6SM SCT025
     FM040300 25012KT P6SM BKN015
     FM040700 26006KT P6SM OVC015
     FM041600 24006KT P6SM OVC025=



000
FTUS46 KLOX 031300 AAA
TAFLAX
TAF AMD
KLAX 031303Z 0313/0418 VRB03KT P6SM BKN021
     FM031700 24008KT P6SM BKN021
     FM032200 25012KT P6SM SCT025
     FM040300 25012KT P6SM BKN015
     FM040700 26006KT P6SM OVC015
     FM041600 24006KT P6SM OVC025=



000
FTUS46 KLOX 031300 AAA
TAFBUR
TAF AMD
KBUR 031302Z 0313/0412 VRB03KT P6SM SCT015
     FM031400 VRB03KT P6SM BKN015
     FM031700 14006KT P6SM BKN021
     FM031900 18008KT P6SM SCT025
     FM040300 12006KT P6SM SKC
     FM040400 17006KT P6SM OVC015
     FM040700 VRB03KT P6SM OVC020=



000
FTUS46 KLOX 031200 AAA
TAFLGB
TAF AMD
KLGB 031227Z 0312/0412 VRB03KT P6SM OVC019
     FM032000 20006KT P6SM SCT025
     FM032200 28012KT P6SM SKC
     FM040400 VRB03KT P6SM OVC015
     FM041000 VRB03KT P6SM OVC025=



000
FTUS46 KLOX 031100
TAFPRB
TAF
KPRB 031138Z 0312/0412 VRB03KT P6SM OVC003
     FM031600 VRB03KT P6SM SKC
     FM032000 22015G20KT P6SM SKC
     FM040200 20010KT P6SM SKC
     FM040800 VRB03KT P6SM SKC
     FM041000 VRB03KT P6SM OVC010=



000
FTUS46 KLOX 031100
TAFWJF
TAF
KWJF 031138Z 0312/0412 25008KT P6SM SKC
     FM031800 23015G25KT P6SM SKC
     FM032100 22025G35KT P6SM SKC
     FM040300 23015G22KT P6SM SKC
     FM040600 23014KT P6SM SKC=



000
FTUS46 KLOX 031100
TAFPMD
TAF
KPMD 031138Z 0312/0412 23008KT P6SM SKC
     FM031900 23018G28KT P6SM SKC
     FM032100 24020G30KT P6SM SKC
     FM040300 23015G22KT P6SM SKC
     FM040600 21012KT P6SM SKC=



000
FTUS46 KLOX 031100
TAFSBA
TAF
KSBA 031138Z 0312/0412 08008KT P6SM BKN010
     FM031400 10006KT P6SM OVC012
     FM031800 21006KT P6SM OVC020
     FM032100 26008KT P6SM SCT025
     FM040300 VRB03KT P6SM BKN015
     FM040900 VRB03KT P6SM OVC021=



000
FTUS46 KLOX 031100
TAFSBP
TAF
KSBP 031138Z 0312/0412 VRB03KT P6SM OVC009
     FM031800 VRB03KT P6SM BKN012
     FM032000 22010KT P6SM SCT015
     FM040400 VRB03KT P6SM BKN015
     FM040700 VRB03KT P6SM OVC021=



000
FTUS46 KLOX 031100
TAFBUR
TAF
KBUR 031138Z 0312/0412 VRB03KT P6SM BKN015
     FM031700 14006KT P6SM BKN021
     FM031900 18008KT P6SM SCT025
     FM040300 12006KT P6SM SKC
     FM040400 17006KT P6SM OVC015
     FM040700 VRB03KT P6SM OVC020=



000
FTUS46 KLOX 031100
TAFSMX
TAF
KSMX 031138Z 0312/0412 VRB03KT 6SM BR OVC011
     FM031800 VRB03KT P6SM BKN015
     FM032000 30008KT P6SM SCT017
     FM040300 VRB03KT P6SM BKN015
     FM040700 VRB03KT P6SM OVC021=



000
FTUS46 KLOX 031100
TAFVNY
TAF
KVNY 031138Z 0312/0412 VRB03KT P6SM OVC012
     FM031900 VRB03KT P6SM SCT020
     FM032100 15010KT P6SM SKC
     FM040200 VRB03KT P6SM SKC
     FM040400 14005KT P6SM OVC015
     FM040800 VRB03KT P6SM OVC020=



000
FTUS46 KLOX 031100
TAFLAX
TAF
KLAX 031138Z 0312/0418 VRB03KT P6SM OVC017
     FM031700 24008KT P6SM BKN021
     FM032200 25012KT P6SM SCT025
     FM040300 25012KT P6SM BKN015
     FM040700 26006KT P6SM OVC015
     FM041600 24006KT P6SM OVC025=



000
FTUS46 KLOX 031100
TAFLGB
TAF
KLGB 031138Z 0312/0412 VRB03KT P6SM OVC021
     FM032000 20006KT P6SM SCT025
     FM032200 28012KT P6SM SKC
     FM040400 VRB03KT P6SM OVC015
     FM041000 VRB03KT P6SM OVC025=



000
FTUS46 KLOX 031100
TAFSBP
TAF
KSBP 031138Z 0312/0412 VRB03KT P6SM OVC009
     FM031800 VRB03KT P6SM BKN012
     FM032000 22010KT P6SM SCT015
     FM040400 VRB03KT P6SM BKN015
     FM040700 VRB03KT P6SM OVC021=



000
FTUS46 KLOX 031100
TAFLAX
TAF
KLAX 031138Z 0312/0418 VRB03KT P6SM OVC017
     FM031700 24008KT P6SM BKN021
     FM032200 25012KT P6SM SCT025
     FM040300 25012KT P6SM BKN015
     FM040700 26006KT P6SM OVC015
     FM041600 24006KT P6SM OVC025=



000
FTUS46 KLOX 031100
TAFSBA
TAF
KSBA 031138Z 0312/0412 08008KT P6SM BKN010
     FM031400 10006KT P6SM OVC012
     FM031800 21006KT P6SM OVC020
     FM032100 26008KT P6SM SCT025
     FM040300 VRB03KT P6SM BKN015
     FM040900 VRB03KT P6SM OVC021=



000
FTUS46 KLOX 031100
TAFBUR
TAF
KBUR 031138Z 0312/0412 VRB03KT P6SM BKN015
     FM031700 14006KT P6SM BKN021
     FM031900 18008KT P6SM SCT025
     FM040300 12006KT P6SM SKC
     FM040400 17006KT P6SM OVC015
     FM040700 VRB03KT P6SM OVC020=



000
FTUS46 KLOX 031100
TAFVNY
TAF
KVNY 031138Z 0312/0412 VRB03KT P6SM OVC012
     FM031900 VRB03KT P6SM SCT020
     FM032100 15010KT P6SM SKC
     FM040200 VRB03KT P6SM SKC
     FM040400 14005KT P6SM OVC015
     FM040800 VRB03KT P6SM OVC020=



000
FTUS46 KLOX 031100
TAFPRB
TAF
KPRB 031138Z 0312/0412 VRB03KT P6SM OVC003
     FM031600 VRB03KT P6SM SKC
     FM032000 22015G20KT P6SM SKC
     FM040200 20010KT P6SM SKC
     FM040800 VRB03KT P6SM SKC
     FM041000 VRB03KT P6SM OVC010=



000
FTUS46 KLOX 031100
TAFLGB
TAF
KLGB 031138Z 0312/0412 VRB03KT P6SM OVC021
     FM032000 20006KT P6SM SCT025
     FM032200 28012KT P6SM SKC
     FM040400 VRB03KT P6SM OVC015
     FM041000 VRB03KT P6SM OVC025=



000
FTUS46 KLOX 031100
TAFPMD
TAF
KPMD 031138Z 0312/0412 23008KT P6SM SKC
     FM031900 23018G28KT P6SM SKC
     FM032100 24020G30KT P6SM SKC
     FM040300 23015G22KT P6SM SKC
     FM040600 21012KT P6SM SKC=



000
FTUS46 KLOX 031100
TAFWJF
TAF
KWJF 031138Z 0312/0412 25008KT P6SM SKC
     FM031800 23015G25KT P6SM SKC
     FM032100 22025G35KT P6SM SKC
     FM040300 23015G22KT P6SM SKC
     FM040600 23014KT P6SM SKC=



000
FTUS46 KLOX 031100
TAFSMX
TAF
KSMX 031138Z 0312/0412 VRB03KT 6SM BR OVC011
     FM031800 VRB03KT P6SM BKN015
     FM032000 30008KT P6SM SCT017
     FM040300 VRB03KT P6SM BKN015
     FM040700 VRB03KT P6SM OVC021=



000
FTUS46 KLOX 031000 AAA
TAFSBP
TAF AMD
KSBP 031002Z 0310/0406 VRB03KT P6SM OVC009
     FM031800 VRB03KT P6SM SKC
     FM032000 22010KT P6SM SKC
     FM040300 VRB03KT P6SM SKC=



000
FTUS46 KLOX 031000 AAB
TAFPRB
TAF AMD
KPRB 031001Z 0310/0406 VRB03KT P6SM OVC005
     FM031600 VRB03KT P6SM SKC
     FM032000 22015G20KT P6SM SKC
     FM040200 20010KT P6SM SKC=



000
FTUS46 KLOX 030900 AAA
TAFPRB
TAF AMD
KPRB 030949Z 0310/0406 VRB03KT P6SM BKN006
     FM031100 VRB03KT P6SM OVC010
     FM031600 VRB03KT P6SM SKC
     FM032000 22015G20KT P6SM SKC
     FM040200 20010KT P6SM SKC=



000
FTUS46 KLOX 030900 AAA
TAFPRB
TAF AMD
KPRB 030949Z 0310/0406 VRB03KT P6SM BKN006
     FM031100 VRB03KT P6SM OVC010
     FM031600 VRB03KT P6SM SKC
     FM032000 22015G20KT P6SM SKC
     FM040200 20010KT P6SM SKC=



000
FTUS46 KLOX 030900 AAA
TAFBUR
TAF AMD
KBUR 030901Z 0309/0406 12006KT P6SM SKC
     FM031100 VRB03KT P6SM OVC007
     FM031400 VRB03KT P6SM OVC012
     FM031800 14006KT P6SM SCT020
     FM032000 18008KT P6SM SKC
     FM040300 12006KT P6SM SKC=



000
FTUS46 KLOX 030900 AAA
TAFBUR
TAF AMD
KBUR 030901Z 0309/0406 12006KT P6SM SKC
     FM031100 VRB03KT P6SM OVC007
     FM031400 VRB03KT P6SM OVC012
     FM031800 14006KT P6SM SCT020
     FM032000 18008KT P6SM SKC
     FM040300 12006KT P6SM SKC=



000
FTUS46 KLOX 030800 AAA
TAFLGB
TAF AMD
KLGB 030805Z 0308/0406 VRB03KT P6SM OVC014
     FM031800 VRB03KT P6SM OVC020
     FM032000 20006KT P6SM SKC
     FM032200 28012KT P6SM SKC
     FM040500 VRB03KT P6SM OVC015=



000
FTUS46 KLOX 030800 AAB
TAFLAX
TAF AMD
KLAX 030805Z 0308/0412 19006KT P6SM FEW014
     FM031000 19006KT P6SM OVC014
     FM031300 VRB03KT 5SM HZ OVC015
     FM031700 24008KT P6SM BKN020
     FM032100 25012KT P6SM SCT020
     FM040300 25012KT P6SM BKN015
     FM040700 26006KT P6SM OVC015=



000
FTUS46 KLOX 030800 AAA
TAFLAX
TAF AMD
KLAX 030804Z 0308/0412 19006KT P6SM FEW014
     FM031000 19006KT P6SM OVC010
     FM031300 VRB03KT 5SM HZ OVC012
     FM031700 24008KT P6SM BKN015
     FM032100 25012KT P6SM SCT015
     FM040300 25012KT P6SM BKN015
     FM040700 26006KT P6SM OVC015=



000
FTUS46 KLOX 030800 AAA
TAFLAX
TAF AMD
KLAX 030804Z 0308/0412 19006KT P6SM FEW014
     FM031000 19006KT P6SM OVC010
     FM031300 VRB03KT 5SM HZ OVC012
     FM031700 24008KT P6SM BKN015
     FM032100 25012KT P6SM SCT015
     FM040300 25012KT P6SM BKN015
     FM040700 26006KT P6SM OVC015=



    US Dept of Commerce
    National Oceanic and Atmospheric Administration
    National Weather Service
    1325 East West Highway
    Silver Spring, MD 20910
    Page Author: NWS Internet Services Team
Disclaimer
Information Quality
Credits
Glossary
Privacy Policy
Freedom of Information Act (FOIA)
About Us
Career Opportunities